<?xml version="1.0" encoding="UTF-8" standalone="no" ?>
<gpx xmlns="http://www.topografix.com/GPX/1/1" xmlns:xsi="http://www.w3.org/2001/XMLSchema-instance" xsi:schemaLocation="http://www.topografix.com/GPX/1/1 http://www.topografix.com/GPX/1/1/gpx.xsd" version="1.1" creator="VisuGPX - https://www.visugpx.com">
  <metadata>
    <name>2021-07-29 13-32-15</name>
  </metadata>
  <trk>
    <name><![CDATA[2021-07-29 13-32-15]]></name>
    <trkseg>
      <trkpt lat="47.25961" lon="0.10726">
        <ele>26</ele>
        <time>2021-07-29T07:47:37Z</time>
      </trkpt>
      <trkpt lat="47.25961" lon="0.10726">
        <ele>26</ele>
        <time>2021-07-29T07:47:38Z</time>
      </trkpt>
      <trkpt lat="47.25961" lon="0.10726">
        <ele>26</ele>
        <time>2021-07-29T07:47:40Z</time>
      </trkpt>
      <trkpt lat="47.25961" lon="0.10727">
        <ele>26</ele>
        <time>2021-07-29T07:47:50Z</time>
      </trkpt>
      <trkpt lat="47.2596" lon="0.10728">
        <ele>26</ele>
        <time>2021-07-29T07:48:03Z</time>
      </trkpt>
      <trkpt lat="47.25955" lon="0.1074">
        <ele>26</ele>
        <time>2021-07-29T07:49:23Z</time>
      </trkpt>
      <trkpt lat="47.25944" lon="0.10742">
        <ele>26</ele>
        <time>2021-07-29T07:49:39Z</time>
      </trkpt>
      <trkpt lat="47.25932" lon="0.10745">
        <ele>26</ele>
        <time>2021-07-29T07:49:49Z</time>
      </trkpt>
      <trkpt lat="47.25921" lon="0.10748">
        <ele>26</ele>
        <time>2021-07-29T07:49:58Z</time>
      </trkpt>
      <trkpt lat="47.25911" lon="0.10751">
        <ele>26</ele>
        <time>2021-07-29T07:50:07Z</time>
      </trkpt>
      <trkpt lat="47.25902" lon="0.10753">
        <ele>26</ele>
        <time>2021-07-29T07:50:17Z</time>
      </trkpt>
      <trkpt lat="47.25892" lon="0.10757">
        <ele>26</ele>
        <time>2021-07-29T07:50:26Z</time>
      </trkpt>
      <trkpt lat="47.2588" lon="0.1076">
        <ele>26</ele>
        <time>2021-07-29T07:50:35Z</time>
      </trkpt>
      <trkpt lat="47.2587" lon="0.10764">
        <ele>26</ele>
        <time>2021-07-29T07:50:44Z</time>
      </trkpt>
      <trkpt lat="47.2586" lon="0.10769">
        <ele>26</ele>
        <time>2021-07-29T07:50:54Z</time>
      </trkpt>
      <trkpt lat="47.25849" lon="0.10776">
        <ele>26</ele>
        <time>2021-07-29T07:51:03Z</time>
      </trkpt>
      <trkpt lat="47.25838" lon="0.10782">
        <ele>26</ele>
        <time>2021-07-29T07:51:12Z</time>
      </trkpt>
      <trkpt lat="47.25828" lon="0.10788">
        <ele>26</ele>
        <time>2021-07-29T07:51:21Z</time>
      </trkpt>
      <trkpt lat="47.25818" lon="0.10793">
        <ele>26</ele>
        <time>2021-07-29T07:51:32Z</time>
      </trkpt>
      <trkpt lat="47.25808" lon="0.10799">
        <ele>26</ele>
        <time>2021-07-29T07:51:48Z</time>
      </trkpt>
      <trkpt lat="47.25797" lon="0.10804">
        <ele>26</ele>
        <time>2021-07-29T07:52:06Z</time>
      </trkpt>
      <trkpt lat="47.25786" lon="0.1081">
        <ele>26</ele>
        <time>2021-07-29T07:52:19Z</time>
      </trkpt>
      <trkpt lat="47.25776" lon="0.10816">
        <ele>26</ele>
        <time>2021-07-29T07:52:29Z</time>
      </trkpt>
      <trkpt lat="47.25766" lon="0.10822">
        <ele>26</ele>
        <time>2021-07-29T07:52:41Z</time>
      </trkpt>
      <trkpt lat="47.25755" lon="0.10829">
        <ele>26</ele>
        <time>2021-07-29T07:53:35Z</time>
      </trkpt>
      <trkpt lat="47.25745" lon="0.10834">
        <ele>26</ele>
        <time>2021-07-29T07:53:44Z</time>
      </trkpt>
      <trkpt lat="47.25735" lon="0.1084">
        <ele>26</ele>
        <time>2021-07-29T07:53:53Z</time>
      </trkpt>
      <trkpt lat="47.25725" lon="0.10843">
        <ele>26</ele>
        <time>2021-07-29T07:54:01Z</time>
      </trkpt>
      <trkpt lat="47.25712" lon="0.10844">
        <ele>26</ele>
        <time>2021-07-29T07:54:10Z</time>
      </trkpt>
      <trkpt lat="47.25701" lon="0.10845">
        <ele>26</ele>
        <time>2021-07-29T07:54:27Z</time>
      </trkpt>
      <trkpt lat="47.2569" lon="0.10849">
        <ele>26</ele>
        <time>2021-07-29T07:54:37Z</time>
      </trkpt>
      <trkpt lat="47.2568" lon="0.10852">
        <ele>25</ele>
        <time>2021-07-29T07:54:46Z</time>
      </trkpt>
      <trkpt lat="47.25668" lon="0.10855">
        <ele>25</ele>
        <time>2021-07-29T07:54:55Z</time>
      </trkpt>
      <trkpt lat="47.25656" lon="0.10856">
        <ele>26</ele>
        <time>2021-07-29T07:55:04Z</time>
      </trkpt>
      <trkpt lat="47.25646" lon="0.10855">
        <ele>26</ele>
        <time>2021-07-29T07:55:11Z</time>
      </trkpt>
      <trkpt lat="47.25634" lon="0.10854">
        <ele>26</ele>
        <time>2021-07-29T07:55:20Z</time>
      </trkpt>
      <trkpt lat="47.25623" lon="0.10852">
        <ele>26</ele>
        <time>2021-07-29T07:55:28Z</time>
      </trkpt>
      <trkpt lat="47.25612" lon="0.10851">
        <ele>26</ele>
        <time>2021-07-29T07:55:37Z</time>
      </trkpt>
      <trkpt lat="47.25602" lon="0.1085">
        <ele>26</ele>
        <time>2021-07-29T07:55:44Z</time>
      </trkpt>
      <trkpt lat="47.2559" lon="0.10849">
        <ele>26</ele>
        <time>2021-07-29T07:55:53Z</time>
      </trkpt>
      <trkpt lat="47.25578" lon="0.10845">
        <ele>26</ele>
        <time>2021-07-29T07:56:01Z</time>
      </trkpt>
      <trkpt lat="47.25568" lon="0.1084">
        <ele>26</ele>
        <time>2021-07-29T07:56:10Z</time>
      </trkpt>
      <trkpt lat="47.25559" lon="0.10834">
        <ele>26</ele>
        <time>2021-07-29T07:56:42Z</time>
      </trkpt>
      <trkpt lat="47.25549" lon="0.1083">
        <ele>26</ele>
        <time>2021-07-29T07:56:50Z</time>
      </trkpt>
      <trkpt lat="47.2554" lon="0.10828">
        <ele>26</ele>
        <time>2021-07-29T07:56:57Z</time>
      </trkpt>
      <trkpt lat="47.25531" lon="0.10825">
        <ele>26</ele>
        <time>2021-07-29T07:57:04Z</time>
      </trkpt>
      <trkpt lat="47.25522" lon="0.10822">
        <ele>26</ele>
        <time>2021-07-29T07:57:11Z</time>
      </trkpt>
      <trkpt lat="47.25513" lon="0.10819">
        <ele>26</ele>
        <time>2021-07-29T07:57:18Z</time>
      </trkpt>
      <trkpt lat="47.25505" lon="0.10812">
        <ele>26</ele>
        <time>2021-07-29T07:57:26Z</time>
      </trkpt>
      <trkpt lat="47.25495" lon="0.10804">
        <ele>26</ele>
        <time>2021-07-29T07:57:38Z</time>
      </trkpt>
      <trkpt lat="47.25487" lon="0.10795">
        <ele>26</ele>
        <time>2021-07-29T07:57:45Z</time>
      </trkpt>
      <trkpt lat="47.25479" lon="0.10784">
        <ele>26</ele>
        <time>2021-07-29T07:57:53Z</time>
      </trkpt>
      <trkpt lat="47.25472" lon="0.10773">
        <ele>25</ele>
        <time>2021-07-29T07:58:03Z</time>
      </trkpt>
      <trkpt lat="47.25463" lon="0.10764">
        <ele>26</ele>
        <time>2021-07-29T07:58:11Z</time>
      </trkpt>
      <trkpt lat="47.25455" lon="0.10756">
        <ele>26</ele>
        <time>2021-07-29T07:58:20Z</time>
      </trkpt>
      <trkpt lat="47.25445" lon="0.10747">
        <ele>26</ele>
        <time>2021-07-29T07:58:30Z</time>
      </trkpt>
      <trkpt lat="47.25437" lon="0.10735">
        <ele>26</ele>
        <time>2021-07-29T07:58:38Z</time>
      </trkpt>
      <trkpt lat="47.25435" lon="0.10721">
        <ele>26</ele>
        <time>2021-07-29T07:58:46Z</time>
      </trkpt>
      <trkpt lat="47.25433" lon="0.10704">
        <ele>25</ele>
        <time>2021-07-29T07:58:54Z</time>
      </trkpt>
      <trkpt lat="47.25433" lon="0.10689">
        <ele>25</ele>
        <time>2021-07-29T07:59:02Z</time>
      </trkpt>
      <trkpt lat="47.25432" lon="0.10675">
        <ele>25</ele>
        <time>2021-07-29T07:59:09Z</time>
      </trkpt>
      <trkpt lat="47.25429" lon="0.10658">
        <ele>25</ele>
        <time>2021-07-29T07:59:17Z</time>
      </trkpt>
      <trkpt lat="47.25428" lon="0.10641">
        <ele>25</ele>
        <time>2021-07-29T07:59:25Z</time>
      </trkpt>
      <trkpt lat="47.25426" lon="0.10625">
        <ele>26</ele>
        <time>2021-07-29T07:59:33Z</time>
      </trkpt>
      <trkpt lat="47.25426" lon="0.1061">
        <ele>25</ele>
        <time>2021-07-29T07:59:41Z</time>
      </trkpt>
      <trkpt lat="47.25424" lon="0.10595">
        <ele>25</ele>
        <time>2021-07-29T07:59:49Z</time>
      </trkpt>
      <trkpt lat="47.25423" lon="0.10581">
        <ele>26</ele>
        <time>2021-07-29T07:59:57Z</time>
      </trkpt>
      <trkpt lat="47.25421" lon="0.10567">
        <ele>25</ele>
        <time>2021-07-29T08:00:05Z</time>
      </trkpt>
      <trkpt lat="47.25418" lon="0.10553">
        <ele>25</ele>
        <time>2021-07-29T08:00:14Z</time>
      </trkpt>
      <trkpt lat="47.25414" lon="0.10541">
        <ele>25</ele>
        <time>2021-07-29T08:00:29Z</time>
      </trkpt>
      <trkpt lat="47.25409" lon="0.10529">
        <ele>25</ele>
        <time>2021-07-29T08:01:17Z</time>
      </trkpt>
      <trkpt lat="47.25403" lon="0.10517">
        <ele>25</ele>
        <time>2021-07-29T08:01:26Z</time>
      </trkpt>
      <trkpt lat="47.25397" lon="0.10505">
        <ele>25</ele>
        <time>2021-07-29T08:01:34Z</time>
      </trkpt>
      <trkpt lat="47.25391" lon="0.10493">
        <ele>25</ele>
        <time>2021-07-29T08:01:41Z</time>
      </trkpt>
      <trkpt lat="47.25386" lon="0.10481">
        <ele>25</ele>
        <time>2021-07-29T08:01:47Z</time>
      </trkpt>
      <trkpt lat="47.2538" lon="0.1047">
        <ele>25</ele>
        <time>2021-07-29T08:01:53Z</time>
      </trkpt>
      <trkpt lat="47.25376" lon="0.10459">
        <ele>25</ele>
        <time>2021-07-29T08:01:59Z</time>
      </trkpt>
      <trkpt lat="47.25372" lon="0.10447">
        <ele>25</ele>
        <time>2021-07-29T08:02:06Z</time>
      </trkpt>
      <trkpt lat="47.25368" lon="0.10434">
        <ele>25</ele>
        <time>2021-07-29T08:02:14Z</time>
      </trkpt>
      <trkpt lat="47.25364" lon="0.1042">
        <ele>25</ele>
        <time>2021-07-29T08:02:22Z</time>
      </trkpt>
      <trkpt lat="47.2536" lon="0.10404">
        <ele>25</ele>
        <time>2021-07-29T08:02:30Z</time>
      </trkpt>
      <trkpt lat="47.25355" lon="0.1039">
        <ele>25</ele>
        <time>2021-07-29T08:02:37Z</time>
      </trkpt>
      <trkpt lat="47.25352" lon="0.10376">
        <ele>25</ele>
        <time>2021-07-29T08:02:44Z</time>
      </trkpt>
      <trkpt lat="47.25348" lon="0.10362">
        <ele>25</ele>
        <time>2021-07-29T08:02:52Z</time>
      </trkpt>
      <trkpt lat="47.25344" lon="0.10347">
        <ele>25</ele>
        <time>2021-07-29T08:02:59Z</time>
      </trkpt>
      <trkpt lat="47.2534" lon="0.10335">
        <ele>25</ele>
        <time>2021-07-29T08:03:05Z</time>
      </trkpt>
      <trkpt lat="47.25332" lon="0.10325">
        <ele>25</ele>
        <time>2021-07-29T08:03:14Z</time>
      </trkpt>
      <trkpt lat="47.25322" lon="0.10323">
        <ele>24</ele>
        <time>2021-07-29T08:03:21Z</time>
      </trkpt>
      <trkpt lat="47.25313" lon="0.10325">
        <ele>24</ele>
        <time>2021-07-29T08:03:28Z</time>
      </trkpt>
      <trkpt lat="47.25304" lon="0.10325">
        <ele>25</ele>
        <time>2021-07-29T08:03:38Z</time>
      </trkpt>
      <trkpt lat="47.25295" lon="0.10327">
        <ele>25</ele>
        <time>2021-07-29T08:03:46Z</time>
      </trkpt>
      <trkpt lat="47.25286" lon="0.10328">
        <ele>25</ele>
        <time>2021-07-29T08:03:53Z</time>
      </trkpt>
      <trkpt lat="47.25275" lon="0.10328">
        <ele>25</ele>
        <time>2021-07-29T08:04:00Z</time>
      </trkpt>
      <trkpt lat="47.25265" lon="0.10328">
        <ele>25</ele>
        <time>2021-07-29T08:04:07Z</time>
      </trkpt>
      <trkpt lat="47.25255" lon="0.10327">
        <ele>25</ele>
        <time>2021-07-29T08:04:15Z</time>
      </trkpt>
      <trkpt lat="47.25246" lon="0.10324">
        <ele>25</ele>
        <time>2021-07-29T08:04:24Z</time>
      </trkpt>
      <trkpt lat="47.25236" lon="0.10324">
        <ele>25</ele>
        <time>2021-07-29T08:04:31Z</time>
      </trkpt>
      <trkpt lat="47.25226" lon="0.10322">
        <ele>25</ele>
        <time>2021-07-29T08:04:38Z</time>
      </trkpt>
      <trkpt lat="47.25217" lon="0.10324">
        <ele>25</ele>
        <time>2021-07-29T08:04:46Z</time>
      </trkpt>
      <trkpt lat="47.25208" lon="0.10325">
        <ele>25</ele>
        <time>2021-07-29T08:04:54Z</time>
      </trkpt>
      <trkpt lat="47.25199" lon="0.10326">
        <ele>25</ele>
        <time>2021-07-29T08:05:02Z</time>
      </trkpt>
      <trkpt lat="47.25191" lon="0.10325">
        <ele>26</ele>
        <time>2021-07-29T08:05:27Z</time>
      </trkpt>
      <trkpt lat="47.25183" lon="0.10325">
        <ele>26</ele>
        <time>2021-07-29T08:05:43Z</time>
      </trkpt>
      <trkpt lat="47.25173" lon="0.10323">
        <ele>26</ele>
        <time>2021-07-29T08:05:54Z</time>
      </trkpt>
      <trkpt lat="47.25168" lon="0.10328">
        <ele>26</ele>
        <time>2021-07-29T08:06:45Z</time>
      </trkpt>
      <trkpt lat="47.25159" lon="0.10334">
        <ele>25</ele>
        <time>2021-07-29T08:06:54Z</time>
      </trkpt>
      <trkpt lat="47.2515" lon="0.1034">
        <ele>25</ele>
        <time>2021-07-29T08:07:09Z</time>
      </trkpt>
      <trkpt lat="47.25141" lon="0.10348">
        <ele>25</ele>
        <time>2021-07-29T08:07:17Z</time>
      </trkpt>
      <trkpt lat="47.25132" lon="0.10356">
        <ele>25</ele>
        <time>2021-07-29T08:07:25Z</time>
      </trkpt>
      <trkpt lat="47.25124" lon="0.10364">
        <ele>26</ele>
        <time>2021-07-29T08:07:32Z</time>
      </trkpt>
      <trkpt lat="47.25114" lon="0.1037">
        <ele>25</ele>
        <time>2021-07-29T08:07:40Z</time>
      </trkpt>
      <trkpt lat="47.25104" lon="0.10376">
        <ele>25</ele>
        <time>2021-07-29T08:07:48Z</time>
      </trkpt>
      <trkpt lat="47.25095" lon="0.10378">
        <ele>25</ele>
        <time>2021-07-29T08:07:55Z</time>
      </trkpt>
      <trkpt lat="47.25086" lon="0.10379">
        <ele>25</ele>
        <time>2021-07-29T08:08:07Z</time>
      </trkpt>
      <trkpt lat="47.25076" lon="0.10378">
        <ele>25</ele>
        <time>2021-07-29T08:08:15Z</time>
      </trkpt>
      <trkpt lat="47.25066" lon="0.10377">
        <ele>25</ele>
        <time>2021-07-29T08:08:22Z</time>
      </trkpt>
      <trkpt lat="47.25056" lon="0.10376">
        <ele>25</ele>
        <time>2021-07-29T08:08:29Z</time>
      </trkpt>
      <trkpt lat="47.25047" lon="0.10375">
        <ele>25</ele>
        <time>2021-07-29T08:08:36Z</time>
      </trkpt>
      <trkpt lat="47.25037" lon="0.10374">
        <ele>25</ele>
        <time>2021-07-29T08:08:43Z</time>
      </trkpt>
      <trkpt lat="47.25028" lon="0.10375">
        <ele>25</ele>
        <time>2021-07-29T08:08:50Z</time>
      </trkpt>
      <trkpt lat="47.25019" lon="0.10376">
        <ele>25</ele>
        <time>2021-07-29T08:08:57Z</time>
      </trkpt>
      <trkpt lat="47.2501" lon="0.10375">
        <ele>25</ele>
        <time>2021-07-29T08:09:04Z</time>
      </trkpt>
      <trkpt lat="47.25001" lon="0.10377">
        <ele>25</ele>
        <time>2021-07-29T08:09:11Z</time>
      </trkpt>
      <trkpt lat="47.24992" lon="0.10378">
        <ele>25</ele>
        <time>2021-07-29T08:09:18Z</time>
      </trkpt>
      <trkpt lat="47.24983" lon="0.10381">
        <ele>25</ele>
        <time>2021-07-29T08:09:26Z</time>
      </trkpt>
      <trkpt lat="47.24974" lon="0.10382">
        <ele>25</ele>
        <time>2021-07-29T08:09:33Z</time>
      </trkpt>
      <trkpt lat="47.24966" lon="0.10383">
        <ele>25</ele>
        <time>2021-07-29T08:09:40Z</time>
      </trkpt>
      <trkpt lat="47.24958" lon="0.10383">
        <ele>26</ele>
        <time>2021-07-29T08:09:47Z</time>
      </trkpt>
      <trkpt lat="47.24949" lon="0.10384">
        <ele>26</ele>
        <time>2021-07-29T08:09:54Z</time>
      </trkpt>
      <trkpt lat="47.24939" lon="0.10385">
        <ele>26</ele>
        <time>2021-07-29T08:10:02Z</time>
      </trkpt>
      <trkpt lat="47.2493" lon="0.10386">
        <ele>25</ele>
        <time>2021-07-29T08:10:10Z</time>
      </trkpt>
      <trkpt lat="47.24921" lon="0.10387">
        <ele>25</ele>
        <time>2021-07-29T08:10:18Z</time>
      </trkpt>
      <trkpt lat="47.24912" lon="0.10388">
        <ele>26</ele>
        <time>2021-07-29T08:10:25Z</time>
      </trkpt>
      <trkpt lat="47.24902" lon="0.1039">
        <ele>26</ele>
        <time>2021-07-29T08:10:33Z</time>
      </trkpt>
      <trkpt lat="47.24894" lon="0.10392">
        <ele>26</ele>
        <time>2021-07-29T08:10:40Z</time>
      </trkpt>
      <trkpt lat="47.24884" lon="0.10394">
        <ele>26</ele>
        <time>2021-07-29T08:10:48Z</time>
      </trkpt>
      <trkpt lat="47.24876" lon="0.10395">
        <ele>26</ele>
        <time>2021-07-29T08:10:56Z</time>
      </trkpt>
      <trkpt lat="47.24867" lon="0.10396">
        <ele>26</ele>
        <time>2021-07-29T08:11:04Z</time>
      </trkpt>
      <trkpt lat="47.24857" lon="0.10393">
        <ele>26</ele>
        <time>2021-07-29T08:11:12Z</time>
      </trkpt>
      <trkpt lat="47.24848" lon="0.10387">
        <ele>26</ele>
        <time>2021-07-29T08:11:21Z</time>
      </trkpt>
      <trkpt lat="47.24842" lon="0.10377">
        <ele>26</ele>
        <time>2021-07-29T08:11:29Z</time>
      </trkpt>
      <trkpt lat="47.24835" lon="0.10366">
        <ele>26</ele>
        <time>2021-07-29T08:11:37Z</time>
      </trkpt>
      <trkpt lat="47.24828" lon="0.10355">
        <ele>26</ele>
        <time>2021-07-29T08:11:45Z</time>
      </trkpt>
      <trkpt lat="47.24821" lon="0.10346">
        <ele>26</ele>
        <time>2021-07-29T08:11:53Z</time>
      </trkpt>
      <trkpt lat="47.24813" lon="0.1034">
        <ele>26</ele>
        <time>2021-07-29T08:12:01Z</time>
      </trkpt>
      <trkpt lat="47.24804" lon="0.10336">
        <ele>26</ele>
        <time>2021-07-29T08:12:10Z</time>
      </trkpt>
      <trkpt lat="47.24795" lon="0.10334">
        <ele>26</ele>
        <time>2021-07-29T08:12:19Z</time>
      </trkpt>
      <trkpt lat="47.24785" lon="0.10334">
        <ele>26</ele>
        <time>2021-07-29T08:12:27Z</time>
      </trkpt>
      <trkpt lat="47.24775" lon="0.10333">
        <ele>26</ele>
        <time>2021-07-29T08:12:35Z</time>
      </trkpt>
      <trkpt lat="47.24765" lon="0.10332">
        <ele>26</ele>
        <time>2021-07-29T08:12:43Z</time>
      </trkpt>
      <trkpt lat="47.24757" lon="0.10329">
        <ele>26</ele>
        <time>2021-07-29T08:12:51Z</time>
      </trkpt>
      <trkpt lat="47.24747" lon="0.10328">
        <ele>26</ele>
        <time>2021-07-29T08:12:59Z</time>
      </trkpt>
      <trkpt lat="47.24738" lon="0.10327">
        <ele>26</ele>
        <time>2021-07-29T08:13:08Z</time>
      </trkpt>
      <trkpt lat="47.24727" lon="0.10327">
        <ele>26</ele>
        <time>2021-07-29T08:13:16Z</time>
      </trkpt>
      <trkpt lat="47.24716" lon="0.10324">
        <ele>26</ele>
        <time>2021-07-29T08:13:24Z</time>
      </trkpt>
      <trkpt lat="47.24706" lon="0.10323">
        <ele>26</ele>
        <time>2021-07-29T08:13:32Z</time>
      </trkpt>
      <trkpt lat="47.24696" lon="0.10324">
        <ele>26</ele>
        <time>2021-07-29T08:13:40Z</time>
      </trkpt>
      <trkpt lat="47.24685" lon="0.10325">
        <ele>26</ele>
        <time>2021-07-29T08:13:49Z</time>
      </trkpt>
      <trkpt lat="47.24675" lon="0.10325">
        <ele>26</ele>
        <time>2021-07-29T08:13:57Z</time>
      </trkpt>
      <trkpt lat="47.24666" lon="0.10324">
        <ele>26</ele>
        <time>2021-07-29T08:14:05Z</time>
      </trkpt>
      <trkpt lat="47.24656" lon="0.10323">
        <ele>26</ele>
        <time>2021-07-29T08:14:14Z</time>
      </trkpt>
      <trkpt lat="47.24646" lon="0.10323">
        <ele>26</ele>
        <time>2021-07-29T08:14:23Z</time>
      </trkpt>
      <trkpt lat="47.24637" lon="0.10322">
        <ele>26</ele>
        <time>2021-07-29T08:14:31Z</time>
      </trkpt>
      <trkpt lat="47.24626" lon="0.1032">
        <ele>26</ele>
        <time>2021-07-29T08:14:40Z</time>
      </trkpt>
      <trkpt lat="47.24616" lon="0.10319">
        <ele>26</ele>
        <time>2021-07-29T08:14:48Z</time>
      </trkpt>
      <trkpt lat="47.24607" lon="0.10318">
        <ele>26</ele>
        <time>2021-07-29T08:14:58Z</time>
      </trkpt>
      <trkpt lat="47.24598" lon="0.10317">
        <ele>27</ele>
        <time>2021-07-29T08:15:06Z</time>
      </trkpt>
      <trkpt lat="47.24589" lon="0.10318">
        <ele>27</ele>
        <time>2021-07-29T08:15:17Z</time>
      </trkpt>
      <trkpt lat="47.24582" lon="0.10325">
        <ele>27</ele>
        <time>2021-07-29T08:16:00Z</time>
      </trkpt>
      <trkpt lat="47.2458" lon="0.10336">
        <ele>27</ele>
        <time>2021-07-29T08:16:15Z</time>
      </trkpt>
      <trkpt lat="47.24578" lon="0.10351">
        <ele>27</ele>
        <time>2021-07-29T08:16:23Z</time>
      </trkpt>
      <trkpt lat="47.24576" lon="0.10362">
        <ele>27</ele>
        <time>2021-07-29T08:16:37Z</time>
      </trkpt>
      <trkpt lat="47.24575" lon="0.10379">
        <ele>26</ele>
        <time>2021-07-29T08:16:48Z</time>
      </trkpt>
      <trkpt lat="47.24572" lon="0.10394">
        <ele>27</ele>
        <time>2021-07-29T08:16:57Z</time>
      </trkpt>
      <trkpt lat="47.24571" lon="0.10408">
        <ele>27</ele>
        <time>2021-07-29T08:17:05Z</time>
      </trkpt>
      <trkpt lat="47.24571" lon="0.10423">
        <ele>27</ele>
        <time>2021-07-29T08:17:13Z</time>
      </trkpt>
      <trkpt lat="47.2457" lon="0.10439">
        <ele>27</ele>
        <time>2021-07-29T08:17:21Z</time>
      </trkpt>
      <trkpt lat="47.24568" lon="0.10455">
        <ele>27</ele>
        <time>2021-07-29T08:17:29Z</time>
      </trkpt>
      <trkpt lat="47.24566" lon="0.1047">
        <ele>27</ele>
        <time>2021-07-29T08:17:38Z</time>
      </trkpt>
      <trkpt lat="47.24563" lon="0.10486">
        <ele>27</ele>
        <time>2021-07-29T08:17:47Z</time>
      </trkpt>
      <trkpt lat="47.2456" lon="0.105">
        <ele>27</ele>
        <time>2021-07-29T08:17:57Z</time>
      </trkpt>
      <trkpt lat="47.24559" lon="0.10516">
        <ele>27</ele>
        <time>2021-07-29T08:18:06Z</time>
      </trkpt>
      <trkpt lat="47.24558" lon="0.10534">
        <ele>27</ele>
        <time>2021-07-29T08:18:15Z</time>
      </trkpt>
      <trkpt lat="47.24555" lon="0.1055">
        <ele>28</ele>
        <time>2021-07-29T08:18:24Z</time>
      </trkpt>
      <trkpt lat="47.24552" lon="0.10565">
        <ele>27</ele>
        <time>2021-07-29T08:19:48Z</time>
      </trkpt>
      <trkpt lat="47.24553" lon="0.10577">
        <ele>27</ele>
        <time>2021-07-29T08:21:16Z</time>
      </trkpt>
      <trkpt lat="47.24555" lon="0.10592">
        <ele>27</ele>
        <time>2021-07-29T08:21:25Z</time>
      </trkpt>
      <trkpt lat="47.24555" lon="0.10607">
        <ele>27</ele>
        <time>2021-07-29T08:21:37Z</time>
      </trkpt>
      <trkpt lat="47.24552" lon="0.10621">
        <ele>27</ele>
        <time>2021-07-29T08:21:46Z</time>
      </trkpt>
      <trkpt lat="47.24549" lon="0.10633">
        <ele>27</ele>
        <time>2021-07-29T08:21:54Z</time>
      </trkpt>
      <trkpt lat="47.24545" lon="0.10648">
        <ele>27</ele>
        <time>2021-07-29T08:22:03Z</time>
      </trkpt>
      <trkpt lat="47.24543" lon="0.10668">
        <ele>27</ele>
        <time>2021-07-29T08:22:13Z</time>
      </trkpt>
      <trkpt lat="47.24547" lon="0.10682">
        <ele>27</ele>
        <time>2021-07-29T08:22:22Z</time>
      </trkpt>
      <trkpt lat="47.24552" lon="0.10697">
        <ele>27</ele>
        <time>2021-07-29T08:22:30Z</time>
      </trkpt>
      <trkpt lat="47.24559" lon="0.10707">
        <ele>27</ele>
        <time>2021-07-29T08:22:38Z</time>
      </trkpt>
      <trkpt lat="47.24568" lon="0.10719">
        <ele>27</ele>
        <time>2021-07-29T08:22:46Z</time>
      </trkpt>
      <trkpt lat="47.24574" lon="0.1073">
        <ele>27</ele>
        <time>2021-07-29T08:22:54Z</time>
      </trkpt>
      <trkpt lat="47.24582" lon="0.10741">
        <ele>27</ele>
        <time>2021-07-29T08:23:02Z</time>
      </trkpt>
      <trkpt lat="47.24589" lon="0.1075">
        <ele>27</ele>
        <time>2021-07-29T08:23:10Z</time>
      </trkpt>
      <trkpt lat="47.24596" lon="0.1076">
        <ele>27</ele>
        <time>2021-07-29T08:23:18Z</time>
      </trkpt>
      <trkpt lat="47.24604" lon="0.10771">
        <ele>27</ele>
        <time>2021-07-29T08:23:27Z</time>
      </trkpt>
      <trkpt lat="47.246" lon="0.10785">
        <ele>27</ele>
        <time>2021-07-29T08:23:35Z</time>
      </trkpt>
      <trkpt lat="47.24592" lon="0.10794">
        <ele>27</ele>
        <time>2021-07-29T08:23:43Z</time>
      </trkpt>
      <trkpt lat="47.24584" lon="0.10803">
        <ele>27</ele>
        <time>2021-07-29T08:23:51Z</time>
      </trkpt>
      <trkpt lat="47.24576" lon="0.10813">
        <ele>27</ele>
        <time>2021-07-29T08:24:01Z</time>
      </trkpt>
      <trkpt lat="47.24571" lon="0.10828">
        <ele>27</ele>
        <time>2021-07-29T08:24:12Z</time>
      </trkpt>
      <trkpt lat="47.24569" lon="0.10844">
        <ele>27</ele>
        <time>2021-07-29T08:24:20Z</time>
      </trkpt>
      <trkpt lat="47.24568" lon="0.10859">
        <ele>27</ele>
        <time>2021-07-29T08:24:28Z</time>
      </trkpt>
      <trkpt lat="47.24567" lon="0.10876">
        <ele>27</ele>
        <time>2021-07-29T08:24:37Z</time>
      </trkpt>
      <trkpt lat="47.24566" lon="0.1089">
        <ele>27</ele>
        <time>2021-07-29T08:24:45Z</time>
      </trkpt>
      <trkpt lat="47.24565" lon="0.10906">
        <ele>27</ele>
        <time>2021-07-29T08:24:53Z</time>
      </trkpt>
      <trkpt lat="47.24565" lon="0.10921">
        <ele>27</ele>
        <time>2021-07-29T08:25:00Z</time>
      </trkpt>
      <trkpt lat="47.24563" lon="0.10934">
        <ele>27</ele>
        <time>2021-07-29T08:25:07Z</time>
      </trkpt>
      <trkpt lat="47.24563" lon="0.10949">
        <ele>27</ele>
        <time>2021-07-29T08:25:14Z</time>
      </trkpt>
      <trkpt lat="47.2456" lon="0.10964">
        <ele>27</ele>
        <time>2021-07-29T08:25:21Z</time>
      </trkpt>
      <trkpt lat="47.24558" lon="0.10978">
        <ele>27</ele>
        <time>2021-07-29T08:25:28Z</time>
      </trkpt>
      <trkpt lat="47.24554" lon="0.10993">
        <ele>27</ele>
        <time>2021-07-29T08:25:36Z</time>
      </trkpt>
      <trkpt lat="47.24549" lon="0.11006">
        <ele>27</ele>
        <time>2021-07-29T08:25:43Z</time>
      </trkpt>
      <trkpt lat="47.24544" lon="0.11019">
        <ele>27</ele>
        <time>2021-07-29T08:25:50Z</time>
      </trkpt>
      <trkpt lat="47.24535" lon="0.11026">
        <ele>27</ele>
        <time>2021-07-29T08:25:58Z</time>
      </trkpt>
      <trkpt lat="47.24526" lon="0.11023">
        <ele>27</ele>
        <time>2021-07-29T08:26:05Z</time>
      </trkpt>
      <trkpt lat="47.24517" lon="0.11019">
        <ele>27</ele>
        <time>2021-07-29T08:26:12Z</time>
      </trkpt>
      <trkpt lat="47.24508" lon="0.11015">
        <ele>27</ele>
        <time>2021-07-29T08:26:19Z</time>
      </trkpt>
      <trkpt lat="47.24499" lon="0.11011">
        <ele>27</ele>
        <time>2021-07-29T08:26:27Z</time>
      </trkpt>
      <trkpt lat="47.24489" lon="0.11008">
        <ele>27</ele>
        <time>2021-07-29T08:26:35Z</time>
      </trkpt>
      <trkpt lat="47.24479" lon="0.11008">
        <ele>27</ele>
        <time>2021-07-29T08:26:43Z</time>
      </trkpt>
      <trkpt lat="47.2447" lon="0.1101">
        <ele>27</ele>
        <time>2021-07-29T08:26:55Z</time>
      </trkpt>
      <trkpt lat="47.24464" lon="0.11011">
        <ele>27</ele>
        <time>2021-07-29T08:27:37Z</time>
      </trkpt>
      <trkpt lat="47.24455" lon="0.11009">
        <ele>27</ele>
        <time>2021-07-29T08:28:11Z</time>
      </trkpt>
      <trkpt lat="47.24445" lon="0.11009">
        <ele>27</ele>
        <time>2021-07-29T08:28:21Z</time>
      </trkpt>
      <trkpt lat="47.24437" lon="0.11013">
        <ele>28</ele>
        <time>2021-07-29T08:28:35Z</time>
      </trkpt>
      <trkpt lat="47.24428" lon="0.11016">
        <ele>28</ele>
        <time>2021-07-29T08:28:43Z</time>
      </trkpt>
      <trkpt lat="47.2442" lon="0.11016">
        <ele>28</ele>
        <time>2021-07-29T08:28:53Z</time>
      </trkpt>
      <trkpt lat="47.24409" lon="0.1102">
        <ele>28</ele>
        <time>2021-07-29T08:29:02Z</time>
      </trkpt>
      <trkpt lat="47.244" lon="0.11021">
        <ele>28</ele>
        <time>2021-07-29T08:29:10Z</time>
      </trkpt>
      <trkpt lat="47.2439" lon="0.11024">
        <ele>28</ele>
        <time>2021-07-29T08:29:18Z</time>
      </trkpt>
      <trkpt lat="47.2438" lon="0.11028">
        <ele>28</ele>
        <time>2021-07-29T08:29:25Z</time>
      </trkpt>
      <trkpt lat="47.24371" lon="0.11033">
        <ele>28</ele>
        <time>2021-07-29T08:29:33Z</time>
      </trkpt>
      <trkpt lat="47.24362" lon="0.11034">
        <ele>28</ele>
        <time>2021-07-29T08:29:41Z</time>
      </trkpt>
      <trkpt lat="47.24352" lon="0.11035">
        <ele>28</ele>
        <time>2021-07-29T08:29:48Z</time>
      </trkpt>
      <trkpt lat="47.24343" lon="0.11036">
        <ele>28</ele>
        <time>2021-07-29T08:29:56Z</time>
      </trkpt>
      <trkpt lat="47.24334" lon="0.11043">
        <ele>28</ele>
        <time>2021-07-29T08:30:04Z</time>
      </trkpt>
      <trkpt lat="47.24324" lon="0.11048">
        <ele>28</ele>
        <time>2021-07-29T08:30:12Z</time>
      </trkpt>
      <trkpt lat="47.24314" lon="0.11048">
        <ele>28</ele>
        <time>2021-07-29T08:30:19Z</time>
      </trkpt>
      <trkpt lat="47.24304" lon="0.1105">
        <ele>28</ele>
        <time>2021-07-29T08:30:29Z</time>
      </trkpt>
      <trkpt lat="47.24298" lon="0.11057">
        <ele>28</ele>
        <time>2021-07-29T08:31:14Z</time>
      </trkpt>
      <trkpt lat="47.24292" lon="0.11065">
        <ele>28</ele>
        <time>2021-07-29T08:31:56Z</time>
      </trkpt>
      <trkpt lat="47.24285" lon="0.11076">
        <ele>28</ele>
        <time>2021-07-29T08:32:04Z</time>
      </trkpt>
      <trkpt lat="47.2428" lon="0.11086">
        <ele>28</ele>
        <time>2021-07-29T08:32:12Z</time>
      </trkpt>
      <trkpt lat="47.24271" lon="0.11095">
        <ele>28</ele>
        <time>2021-07-29T08:32:21Z</time>
      </trkpt>
      <trkpt lat="47.24263" lon="0.11101">
        <ele>28</ele>
        <time>2021-07-29T08:32:29Z</time>
      </trkpt>
      <trkpt lat="47.24253" lon="0.11108">
        <ele>28</ele>
        <time>2021-07-29T08:32:38Z</time>
      </trkpt>
      <trkpt lat="47.24244" lon="0.11113">
        <ele>28</ele>
        <time>2021-07-29T08:32:46Z</time>
      </trkpt>
      <trkpt lat="47.24234" lon="0.11118">
        <ele>28</ele>
        <time>2021-07-29T08:32:54Z</time>
      </trkpt>
      <trkpt lat="47.24225" lon="0.11124">
        <ele>28</ele>
        <time>2021-07-29T08:33:01Z</time>
      </trkpt>
      <trkpt lat="47.24217" lon="0.11129">
        <ele>28</ele>
        <time>2021-07-29T08:33:09Z</time>
      </trkpt>
      <trkpt lat="47.24207" lon="0.11132">
        <ele>28</ele>
        <time>2021-07-29T08:33:16Z</time>
      </trkpt>
      <trkpt lat="47.24199" lon="0.11138">
        <ele>28</ele>
        <time>2021-07-29T08:33:23Z</time>
      </trkpt>
      <trkpt lat="47.24189" lon="0.11144">
        <ele>28</ele>
        <time>2021-07-29T08:33:32Z</time>
      </trkpt>
      <trkpt lat="47.24179" lon="0.11147">
        <ele>28</ele>
        <time>2021-07-29T08:35:15Z</time>
      </trkpt>
      <trkpt lat="47.2417" lon="0.11154">
        <ele>28</ele>
        <time>2021-07-29T08:35:23Z</time>
      </trkpt>
      <trkpt lat="47.24161" lon="0.11162">
        <ele>28</ele>
        <time>2021-07-29T08:35:31Z</time>
      </trkpt>
      <trkpt lat="47.24153" lon="0.11168">
        <ele>28</ele>
        <time>2021-07-29T08:35:38Z</time>
      </trkpt>
      <trkpt lat="47.24146" lon="0.11175">
        <ele>28</ele>
        <time>2021-07-29T08:35:46Z</time>
      </trkpt>
      <trkpt lat="47.24138" lon="0.11182">
        <ele>28</ele>
        <time>2021-07-29T08:35:53Z</time>
      </trkpt>
      <trkpt lat="47.24131" lon="0.11192">
        <ele>28</ele>
        <time>2021-07-29T08:36:00Z</time>
      </trkpt>
      <trkpt lat="47.24124" lon="0.11203">
        <ele>28</ele>
        <time>2021-07-29T08:36:08Z</time>
      </trkpt>
      <trkpt lat="47.24117" lon="0.11213">
        <ele>28</ele>
        <time>2021-07-29T08:36:15Z</time>
      </trkpt>
      <trkpt lat="47.2411" lon="0.11225">
        <ele>28</ele>
        <time>2021-07-29T08:36:22Z</time>
      </trkpt>
      <trkpt lat="47.24104" lon="0.11236">
        <ele>28</ele>
        <time>2021-07-29T08:36:30Z</time>
      </trkpt>
      <trkpt lat="47.24097" lon="0.11247">
        <ele>28</ele>
        <time>2021-07-29T08:36:38Z</time>
      </trkpt>
      <trkpt lat="47.2409" lon="0.11257">
        <ele>28</ele>
        <time>2021-07-29T08:36:45Z</time>
      </trkpt>
      <trkpt lat="47.24082" lon="0.11265">
        <ele>28</ele>
        <time>2021-07-29T08:36:53Z</time>
      </trkpt>
      <trkpt lat="47.24074" lon="0.11273">
        <ele>28</ele>
        <time>2021-07-29T08:37:00Z</time>
      </trkpt>
      <trkpt lat="47.24067" lon="0.11282">
        <ele>28</ele>
        <time>2021-07-29T08:37:08Z</time>
      </trkpt>
      <trkpt lat="47.24058" lon="0.11291">
        <ele>28</ele>
        <time>2021-07-29T08:37:15Z</time>
      </trkpt>
      <trkpt lat="47.24051" lon="0.113">
        <ele>28</ele>
        <time>2021-07-29T08:37:22Z</time>
      </trkpt>
      <trkpt lat="47.24043" lon="0.11306">
        <ele>28</ele>
        <time>2021-07-29T08:37:29Z</time>
      </trkpt>
      <trkpt lat="47.24035" lon="0.11313">
        <ele>28</ele>
        <time>2021-07-29T08:37:38Z</time>
      </trkpt>
      <trkpt lat="47.24026" lon="0.11323">
        <ele>28</ele>
        <time>2021-07-29T08:37:46Z</time>
      </trkpt>
      <trkpt lat="47.24017" lon="0.11333">
        <ele>29</ele>
        <time>2021-07-29T08:37:55Z</time>
      </trkpt>
      <trkpt lat="47.2401" lon="0.11343">
        <ele>29</ele>
        <time>2021-07-29T08:38:02Z</time>
      </trkpt>
      <trkpt lat="47.24002" lon="0.11352">
        <ele>29</ele>
        <time>2021-07-29T08:38:10Z</time>
      </trkpt>
      <trkpt lat="47.23995" lon="0.11362">
        <ele>29</ele>
        <time>2021-07-29T08:38:18Z</time>
      </trkpt>
      <trkpt lat="47.23988" lon="0.11372">
        <ele>29</ele>
        <time>2021-07-29T08:38:26Z</time>
      </trkpt>
      <trkpt lat="47.23988" lon="0.11385">
        <ele>29</ele>
        <time>2021-07-29T08:38:38Z</time>
      </trkpt>
      <trkpt lat="47.23986" lon="0.11398">
        <ele>29</ele>
        <time>2021-07-29T08:38:46Z</time>
      </trkpt>
      <trkpt lat="47.23984" lon="0.11413">
        <ele>30</ele>
        <time>2021-07-29T08:38:58Z</time>
      </trkpt>
      <trkpt lat="47.23984" lon="0.11423">
        <ele>31</ele>
        <time>2021-07-29T08:39:22Z</time>
      </trkpt>
      <trkpt lat="47.23977" lon="0.11425">
        <ele>30</ele>
        <time>2021-07-29T08:40:16Z</time>
      </trkpt>
      <trkpt lat="47.23972" lon="0.11425">
        <ele>30</ele>
        <time>2021-07-29T08:40:38Z</time>
      </trkpt>
      <trkpt lat="47.23962" lon="0.11428">
        <ele>31</ele>
        <time>2021-07-29T08:40:54Z</time>
      </trkpt>
      <trkpt lat="47.23952" lon="0.11431">
        <ele>31</ele>
        <time>2021-07-29T08:41:03Z</time>
      </trkpt>
      <trkpt lat="47.23942" lon="0.11433">
        <ele>31</ele>
        <time>2021-07-29T08:41:12Z</time>
      </trkpt>
      <trkpt lat="47.23932" lon="0.11438">
        <ele>31</ele>
        <time>2021-07-29T08:41:23Z</time>
      </trkpt>
      <trkpt lat="47.23922" lon="0.11441">
        <ele>30</ele>
        <time>2021-07-29T08:41:31Z</time>
      </trkpt>
      <trkpt lat="47.23913" lon="0.11442">
        <ele>30</ele>
        <time>2021-07-29T08:41:40Z</time>
      </trkpt>
      <trkpt lat="47.23903" lon="0.11445">
        <ele>30</ele>
        <time>2021-07-29T08:41:48Z</time>
      </trkpt>
      <trkpt lat="47.23893" lon="0.11451">
        <ele>31</ele>
        <time>2021-07-29T08:41:57Z</time>
      </trkpt>
      <trkpt lat="47.23885" lon="0.11454">
        <ele>30</ele>
        <time>2021-07-29T08:42:13Z</time>
      </trkpt>
      <trkpt lat="47.23875" lon="0.11457">
        <ele>31</ele>
        <time>2021-07-29T08:42:23Z</time>
      </trkpt>
      <trkpt lat="47.23866" lon="0.1146">
        <ele>31</ele>
        <time>2021-07-29T08:42:31Z</time>
      </trkpt>
      <trkpt lat="47.23857" lon="0.11462">
        <ele>31</ele>
        <time>2021-07-29T08:42:39Z</time>
      </trkpt>
      <trkpt lat="47.23848" lon="0.11466">
        <ele>31</ele>
        <time>2021-07-29T08:42:47Z</time>
      </trkpt>
      <trkpt lat="47.23839" lon="0.1147">
        <ele>31</ele>
        <time>2021-07-29T08:42:55Z</time>
      </trkpt>
      <trkpt lat="47.23829" lon="0.11473">
        <ele>31</ele>
        <time>2021-07-29T08:43:03Z</time>
      </trkpt>
      <trkpt lat="47.23821" lon="0.11475">
        <ele>31</ele>
        <time>2021-07-29T08:43:10Z</time>
      </trkpt>
      <trkpt lat="47.23822" lon="0.11476">
        <ele>31</ele>
        <time>2021-07-29T08:43:25Z</time>
      </trkpt>
      <trkpt lat="47.23831" lon="0.11476">
        <ele>31</ele>
        <time>2021-07-29T08:43:33Z</time>
      </trkpt>
      <trkpt lat="47.23834" lon="0.11488">
        <ele>31</ele>
        <time>2021-07-29T08:43:51Z</time>
      </trkpt>
      <trkpt lat="47.23836" lon="0.11502">
        <ele>31</ele>
        <time>2021-07-29T08:43:59Z</time>
      </trkpt>
      <trkpt lat="47.23838" lon="0.11515">
        <ele>31</ele>
        <time>2021-07-29T08:44:23Z</time>
      </trkpt>
      <trkpt lat="47.23839" lon="0.11529">
        <ele>31</ele>
        <time>2021-07-29T08:44:33Z</time>
      </trkpt>
      <trkpt lat="47.23841" lon="0.11543">
        <ele>31</ele>
        <time>2021-07-29T08:44:41Z</time>
      </trkpt>
      <trkpt lat="47.23843" lon="0.11559">
        <ele>31</ele>
        <time>2021-07-29T08:44:49Z</time>
      </trkpt>
      <trkpt lat="47.23845" lon="0.11573">
        <ele>31</ele>
        <time>2021-07-29T08:44:58Z</time>
      </trkpt>
      <trkpt lat="47.23847" lon="0.11587">
        <ele>31</ele>
        <time>2021-07-29T08:45:06Z</time>
      </trkpt>
      <trkpt lat="47.23849" lon="0.116">
        <ele>31</ele>
        <time>2021-07-29T08:45:14Z</time>
      </trkpt>
      <trkpt lat="47.23852" lon="0.11613">
        <ele>31</ele>
        <time>2021-07-29T08:45:22Z</time>
      </trkpt>
      <trkpt lat="47.23853" lon="0.11626">
        <ele>31</ele>
        <time>2021-07-29T08:45:30Z</time>
      </trkpt>
      <trkpt lat="47.23855" lon="0.11639">
        <ele>31</ele>
        <time>2021-07-29T08:45:38Z</time>
      </trkpt>
      <trkpt lat="47.23857" lon="0.11652">
        <ele>31</ele>
        <time>2021-07-29T08:45:46Z</time>
      </trkpt>
      <trkpt lat="47.2386" lon="0.11666">
        <ele>31</ele>
        <time>2021-07-29T08:45:54Z</time>
      </trkpt>
      <trkpt lat="47.23862" lon="0.11679">
        <ele>31</ele>
        <time>2021-07-29T08:46:02Z</time>
      </trkpt>
      <trkpt lat="47.23864" lon="0.11694">
        <ele>31</ele>
        <time>2021-07-29T08:46:11Z</time>
      </trkpt>
      <trkpt lat="47.23867" lon="0.11707">
        <ele>31</ele>
        <time>2021-07-29T08:46:19Z</time>
      </trkpt>
      <trkpt lat="47.2387" lon="0.1172">
        <ele>31</ele>
        <time>2021-07-29T08:46:27Z</time>
      </trkpt>
      <trkpt lat="47.23872" lon="0.11733">
        <ele>31</ele>
        <time>2021-07-29T08:46:35Z</time>
      </trkpt>
      <trkpt lat="47.23874" lon="0.11747">
        <ele>32</ele>
        <time>2021-07-29T08:46:43Z</time>
      </trkpt>
      <trkpt lat="47.23877" lon="0.11759">
        <ele>31</ele>
        <time>2021-07-29T08:46:52Z</time>
      </trkpt>
      <trkpt lat="47.2388" lon="0.11773">
        <ele>31</ele>
        <time>2021-07-29T08:47:00Z</time>
      </trkpt>
      <trkpt lat="47.23882" lon="0.11786">
        <ele>31</ele>
        <time>2021-07-29T08:47:07Z</time>
      </trkpt>
      <trkpt lat="47.23883" lon="0.118">
        <ele>31</ele>
        <time>2021-07-29T08:47:15Z</time>
      </trkpt>
      <trkpt lat="47.23885" lon="0.11814">
        <ele>31</ele>
        <time>2021-07-29T08:47:24Z</time>
      </trkpt>
      <trkpt lat="47.23888" lon="0.11827">
        <ele>32</ele>
        <time>2021-07-29T08:47:40Z</time>
      </trkpt>
      <trkpt lat="47.23889" lon="0.11843">
        <ele>31</ele>
        <time>2021-07-29T08:47:50Z</time>
      </trkpt>
      <trkpt lat="47.2389" lon="0.11855">
        <ele>31</ele>
        <time>2021-07-29T08:48:04Z</time>
      </trkpt>
      <trkpt lat="47.23891" lon="0.11869">
        <ele>31</ele>
        <time>2021-07-29T08:48:13Z</time>
      </trkpt>
      <trkpt lat="47.23893" lon="0.11884">
        <ele>31</ele>
        <time>2021-07-29T08:48:21Z</time>
      </trkpt>
      <trkpt lat="47.23894" lon="0.11898">
        <ele>31</ele>
        <time>2021-07-29T08:48:30Z</time>
      </trkpt>
      <trkpt lat="47.23895" lon="0.11912">
        <ele>31</ele>
        <time>2021-07-29T08:48:38Z</time>
      </trkpt>
      <trkpt lat="47.23896" lon="0.11926">
        <ele>32</ele>
        <time>2021-07-29T08:48:46Z</time>
      </trkpt>
      <trkpt lat="47.23896" lon="0.11934">
        <ele>32</ele>
        <time>2021-07-29T08:49:54Z</time>
      </trkpt>
      <trkpt lat="47.23887" lon="0.1194">
        <ele>31</ele>
        <time>2021-07-29T08:50:15Z</time>
      </trkpt>
      <trkpt lat="47.23878" lon="0.11942">
        <ele>32</ele>
        <time>2021-07-29T08:50:25Z</time>
      </trkpt>
      <trkpt lat="47.23868" lon="0.11945">
        <ele>32</ele>
        <time>2021-07-29T08:50:35Z</time>
      </trkpt>
      <trkpt lat="47.2386" lon="0.11948">
        <ele>32</ele>
        <time>2021-07-29T08:50:56Z</time>
      </trkpt>
      <trkpt lat="47.2385" lon="0.1195">
        <ele>32</ele>
        <time>2021-07-29T08:51:05Z</time>
      </trkpt>
      <trkpt lat="47.2384" lon="0.11952">
        <ele>32</ele>
        <time>2021-07-29T08:51:13Z</time>
      </trkpt>
      <trkpt lat="47.23831" lon="0.11951">
        <ele>32</ele>
        <time>2021-07-29T08:51:28Z</time>
      </trkpt>
      <trkpt lat="47.2382" lon="0.11951">
        <ele>32</ele>
        <time>2021-07-29T08:51:44Z</time>
      </trkpt>
      <trkpt lat="47.23809" lon="0.11952">
        <ele>32</ele>
        <time>2021-07-29T08:51:53Z</time>
      </trkpt>
      <trkpt lat="47.23799" lon="0.11949">
        <ele>32</ele>
        <time>2021-07-29T08:52:20Z</time>
      </trkpt>
      <trkpt lat="47.23788" lon="0.11949">
        <ele>32</ele>
        <time>2021-07-29T08:52:31Z</time>
      </trkpt>
      <trkpt lat="47.23787" lon="0.11951">
        <ele>31</ele>
        <time>2021-07-29T08:54:24Z</time>
      </trkpt>
      <trkpt lat="47.23776" lon="0.11953">
        <ele>32</ele>
        <time>2021-07-29T08:54:47Z</time>
      </trkpt>
      <trkpt lat="47.23765" lon="0.11955">
        <ele>31</ele>
        <time>2021-07-29T08:54:57Z</time>
      </trkpt>
      <trkpt lat="47.23757" lon="0.11951">
        <ele>31</ele>
        <time>2021-07-29T08:55:08Z</time>
      </trkpt>
      <trkpt lat="47.23747" lon="0.1195">
        <ele>31</ele>
        <time>2021-07-29T08:55:18Z</time>
      </trkpt>
      <trkpt lat="47.23738" lon="0.11951">
        <ele>31</ele>
        <time>2021-07-29T08:55:26Z</time>
      </trkpt>
      <trkpt lat="47.23728" lon="0.11951">
        <ele>31</ele>
        <time>2021-07-29T08:55:35Z</time>
      </trkpt>
      <trkpt lat="47.23718" lon="0.11952">
        <ele>32</ele>
        <time>2021-07-29T08:55:43Z</time>
      </trkpt>
      <trkpt lat="47.23709" lon="0.11953">
        <ele>31</ele>
        <time>2021-07-29T08:55:51Z</time>
      </trkpt>
      <trkpt lat="47.23698" lon="0.11951">
        <ele>31</ele>
        <time>2021-07-29T08:56:09Z</time>
      </trkpt>
      <trkpt lat="47.2369" lon="0.11947">
        <ele>32</ele>
        <time>2021-07-29T08:57:17Z</time>
      </trkpt>
      <trkpt lat="47.2368" lon="0.11951">
        <ele>32</ele>
        <time>2021-07-29T08:57:25Z</time>
      </trkpt>
      <trkpt lat="47.23672" lon="0.11956">
        <ele>32</ele>
        <time>2021-07-29T08:57:44Z</time>
      </trkpt>
      <trkpt lat="47.23663" lon="0.11959">
        <ele>32</ele>
        <time>2021-07-29T08:57:52Z</time>
      </trkpt>
      <trkpt lat="47.23653" lon="0.11962">
        <ele>31</ele>
        <time>2021-07-29T08:57:59Z</time>
      </trkpt>
      <trkpt lat="47.23644" lon="0.11965">
        <ele>32</ele>
        <time>2021-07-29T08:58:07Z</time>
      </trkpt>
      <trkpt lat="47.23634" lon="0.11966">
        <ele>32</ele>
        <time>2021-07-29T08:58:14Z</time>
      </trkpt>
      <trkpt lat="47.23625" lon="0.11963">
        <ele>32</ele>
        <time>2021-07-29T08:58:27Z</time>
      </trkpt>
      <trkpt lat="47.23617" lon="0.11966">
        <ele>32</ele>
        <time>2021-07-29T09:01:05Z</time>
      </trkpt>
      <trkpt lat="47.23606" lon="0.11969">
        <ele>32</ele>
        <time>2021-07-29T09:01:15Z</time>
      </trkpt>
      <trkpt lat="47.23597" lon="0.1197">
        <ele>32</ele>
        <time>2021-07-29T09:01:23Z</time>
      </trkpt>
      <trkpt lat="47.23586" lon="0.11972">
        <ele>32</ele>
        <time>2021-07-29T09:01:36Z</time>
      </trkpt>
      <trkpt lat="47.23577" lon="0.11978">
        <ele>32</ele>
        <time>2021-07-29T09:01:44Z</time>
      </trkpt>
      <trkpt lat="47.23567" lon="0.11987">
        <ele>33</ele>
        <time>2021-07-29T09:01:53Z</time>
      </trkpt>
      <trkpt lat="47.23559" lon="0.11992">
        <ele>33</ele>
        <time>2021-07-29T09:02:02Z</time>
      </trkpt>
      <trkpt lat="47.23557" lon="0.11996">
        <ele>33</ele>
        <time>2021-07-29T09:02:37Z</time>
      </trkpt>
      <trkpt lat="47.23547" lon="0.12">
        <ele>33</ele>
        <time>2021-07-29T09:02:59Z</time>
      </trkpt>
      <trkpt lat="47.23536" lon="0.12004">
        <ele>33</ele>
        <time>2021-07-29T09:03:08Z</time>
      </trkpt>
      <trkpt lat="47.23525" lon="0.12006">
        <ele>33</ele>
        <time>2021-07-29T09:03:21Z</time>
      </trkpt>
      <trkpt lat="47.23515" lon="0.1201">
        <ele>34</ele>
        <time>2021-07-29T09:03:29Z</time>
      </trkpt>
      <trkpt lat="47.23507" lon="0.12017">
        <ele>35</ele>
        <time>2021-07-29T09:03:41Z</time>
      </trkpt>
      <trkpt lat="47.23506" lon="0.12031">
        <ele>35</ele>
        <time>2021-07-29T09:03:50Z</time>
      </trkpt>
      <trkpt lat="47.235" lon="0.12039">
        <ele>36</ele>
        <time>2021-07-29T09:04:25Z</time>
      </trkpt>
      <trkpt lat="47.23498" lon="0.1203">
        <ele>37</ele>
        <time>2021-07-29T09:04:52Z</time>
      </trkpt>
      <trkpt lat="47.23492" lon="0.1202">
        <ele>36</ele>
        <time>2021-07-29T09:06:31Z</time>
      </trkpt>
      <trkpt lat="47.23482" lon="0.12024">
        <ele>34</ele>
        <time>2021-07-29T09:06:48Z</time>
      </trkpt>
      <trkpt lat="47.23476" lon="0.12025">
        <ele>34</ele>
        <time>2021-07-29T09:07:20Z</time>
      </trkpt>
      <trkpt lat="47.23475" lon="0.12023">
        <ele>34</ele>
        <time>2021-07-29T09:07:52Z</time>
      </trkpt>
      <trkpt lat="47.23469" lon="0.12027">
        <ele>33</ele>
        <time>2021-07-29T09:08:41Z</time>
      </trkpt>
      <trkpt lat="47.23461" lon="0.12025">
        <ele>33</ele>
        <time>2021-07-29T09:09:30Z</time>
      </trkpt>
      <trkpt lat="47.23451" lon="0.1203">
        <ele>33</ele>
        <time>2021-07-29T09:09:43Z</time>
      </trkpt>
      <trkpt lat="47.23441" lon="0.12032">
        <ele>33</ele>
        <time>2021-07-29T09:09:56Z</time>
      </trkpt>
      <trkpt lat="47.23431" lon="0.12033">
        <ele>33</ele>
        <time>2021-07-29T09:10:06Z</time>
      </trkpt>
      <trkpt lat="47.23422" lon="0.12036">
        <ele>32</ele>
        <time>2021-07-29T09:10:22Z</time>
      </trkpt>
      <trkpt lat="47.23418" lon="0.12041">
        <ele>32</ele>
        <time>2021-07-29T09:10:50Z</time>
      </trkpt>
      <trkpt lat="47.23418" lon="0.12038">
        <ele>33</ele>
        <time>2021-07-29T09:11:27Z</time>
      </trkpt>
      <trkpt lat="47.23415" lon="0.12039">
        <ele>33</ele>
        <time>2021-07-29T09:11:55Z</time>
      </trkpt>
      <trkpt lat="47.23415" lon="0.12041">
        <ele>32</ele>
        <time>2021-07-29T09:12:35Z</time>
      </trkpt>
      <trkpt lat="47.23415" lon="0.12043">
        <ele>33</ele>
        <time>2021-07-29T09:13:12Z</time>
      </trkpt>
      <trkpt lat="47.23414" lon="0.12033">
        <ele>33</ele>
        <time>2021-07-29T09:13:36Z</time>
      </trkpt>
      <trkpt lat="47.23408" lon="0.12029">
        <ele>33</ele>
        <time>2021-07-29T09:13:54Z</time>
      </trkpt>
      <trkpt lat="47.23399" lon="0.1202">
        <ele>33</ele>
        <time>2021-07-29T09:14:12Z</time>
      </trkpt>
      <trkpt lat="47.23394" lon="0.12008">
        <ele>32</ele>
        <time>2021-07-29T09:14:25Z</time>
      </trkpt>
      <trkpt lat="47.23387" lon="0.11996">
        <ele>33</ele>
        <time>2021-07-29T09:14:56Z</time>
      </trkpt>
      <trkpt lat="47.23379" lon="0.11985">
        <ele>33</ele>
        <time>2021-07-29T09:15:09Z</time>
      </trkpt>
      <trkpt lat="47.23371" lon="0.11973">
        <ele>33</ele>
        <time>2021-07-29T09:15:24Z</time>
      </trkpt>
      <trkpt lat="47.23364" lon="0.11961">
        <ele>33</ele>
        <time>2021-07-29T09:15:35Z</time>
      </trkpt>
      <trkpt lat="47.23356" lon="0.11948">
        <ele>33</ele>
        <time>2021-07-29T09:15:45Z</time>
      </trkpt>
      <trkpt lat="47.23348" lon="0.11935">
        <ele>33</ele>
        <time>2021-07-29T09:15:58Z</time>
      </trkpt>
      <trkpt lat="47.23339" lon="0.11921">
        <ele>33</ele>
        <time>2021-07-29T09:16:08Z</time>
      </trkpt>
      <trkpt lat="47.23332" lon="0.11906">
        <ele>33</ele>
        <time>2021-07-29T09:16:19Z</time>
      </trkpt>
      <trkpt lat="47.23324" lon="0.11893">
        <ele>33</ele>
        <time>2021-07-29T09:16:29Z</time>
      </trkpt>
      <trkpt lat="47.23315" lon="0.11881">
        <ele>33</ele>
        <time>2021-07-29T09:16:39Z</time>
      </trkpt>
      <trkpt lat="47.23308" lon="0.11867">
        <ele>33</ele>
        <time>2021-07-29T09:16:48Z</time>
      </trkpt>
      <trkpt lat="47.233" lon="0.11851">
        <ele>33</ele>
        <time>2021-07-29T09:16:59Z</time>
      </trkpt>
      <trkpt lat="47.23294" lon="0.11834">
        <ele>33</ele>
        <time>2021-07-29T09:17:08Z</time>
      </trkpt>
      <trkpt lat="47.23287" lon="0.11817">
        <ele>32</ele>
        <time>2021-07-29T09:17:16Z</time>
      </trkpt>
      <trkpt lat="47.23279" lon="0.11803">
        <ele>33</ele>
        <time>2021-07-29T09:17:25Z</time>
      </trkpt>
      <trkpt lat="47.23273" lon="0.11787">
        <ele>33</ele>
        <time>2021-07-29T09:17:35Z</time>
      </trkpt>
      <trkpt lat="47.23265" lon="0.11773">
        <ele>33</ele>
        <time>2021-07-29T09:17:44Z</time>
      </trkpt>
      <trkpt lat="47.23257" lon="0.11761">
        <ele>33</ele>
        <time>2021-07-29T09:17:52Z</time>
      </trkpt>
      <trkpt lat="47.23249" lon="0.1175">
        <ele>33</ele>
        <time>2021-07-29T09:18:02Z</time>
      </trkpt>
      <trkpt lat="47.23239" lon="0.11739">
        <ele>33</ele>
        <time>2021-07-29T09:18:11Z</time>
      </trkpt>
      <trkpt lat="47.23229" lon="0.1173">
        <ele>33</ele>
        <time>2021-07-29T09:18:21Z</time>
      </trkpt>
      <trkpt lat="47.2322" lon="0.1172">
        <ele>33</ele>
        <time>2021-07-29T09:18:31Z</time>
      </trkpt>
      <trkpt lat="47.23211" lon="0.11711">
        <ele>33</ele>
        <time>2021-07-29T09:18:41Z</time>
      </trkpt>
      <trkpt lat="47.23201" lon="0.117">
        <ele>33</ele>
        <time>2021-07-29T09:18:50Z</time>
      </trkpt>
      <trkpt lat="47.23192" lon="0.11688">
        <ele>33</ele>
        <time>2021-07-29T09:18:58Z</time>
      </trkpt>
      <trkpt lat="47.23184" lon="0.11676">
        <ele>33</ele>
        <time>2021-07-29T09:19:07Z</time>
      </trkpt>
      <trkpt lat="47.23176" lon="0.1166">
        <ele>33</ele>
        <time>2021-07-29T09:19:19Z</time>
      </trkpt>
      <trkpt lat="47.23166" lon="0.11645">
        <ele>33</ele>
        <time>2021-07-29T09:19:30Z</time>
      </trkpt>
      <trkpt lat="47.23158" lon="0.11629">
        <ele>33</ele>
        <time>2021-07-29T09:19:38Z</time>
      </trkpt>
      <trkpt lat="47.23148" lon="0.11616">
        <ele>33</ele>
        <time>2021-07-29T09:19:46Z</time>
      </trkpt>
      <trkpt lat="47.23142" lon="0.11603">
        <ele>34</ele>
        <time>2021-07-29T09:19:55Z</time>
      </trkpt>
      <trkpt lat="47.23135" lon="0.11587">
        <ele>33</ele>
        <time>2021-07-29T09:20:03Z</time>
      </trkpt>
      <trkpt lat="47.23129" lon="0.11572">
        <ele>33</ele>
        <time>2021-07-29T09:20:11Z</time>
      </trkpt>
      <trkpt lat="47.23124" lon="0.11557">
        <ele>33</ele>
        <time>2021-07-29T09:20:19Z</time>
      </trkpt>
      <trkpt lat="47.23118" lon="0.11543">
        <ele>33</ele>
        <time>2021-07-29T09:20:27Z</time>
      </trkpt>
      <trkpt lat="47.23112" lon="0.11531">
        <ele>33</ele>
        <time>2021-07-29T09:20:36Z</time>
      </trkpt>
      <trkpt lat="47.23106" lon="0.11515">
        <ele>33</ele>
        <time>2021-07-29T09:20:46Z</time>
      </trkpt>
      <trkpt lat="47.23102" lon="0.11501">
        <ele>33</ele>
        <time>2021-07-29T09:20:54Z</time>
      </trkpt>
      <trkpt lat="47.23097" lon="0.11486">
        <ele>33</ele>
        <time>2021-07-29T09:21:03Z</time>
      </trkpt>
      <trkpt lat="47.23092" lon="0.11472">
        <ele>34</ele>
        <time>2021-07-29T09:21:11Z</time>
      </trkpt>
      <trkpt lat="47.23089" lon="0.11458">
        <ele>34</ele>
        <time>2021-07-29T09:21:19Z</time>
      </trkpt>
      <trkpt lat="47.23084" lon="0.11442">
        <ele>34</ele>
        <time>2021-07-29T09:21:28Z</time>
      </trkpt>
      <trkpt lat="47.23078" lon="0.11425">
        <ele>34</ele>
        <time>2021-07-29T09:21:37Z</time>
      </trkpt>
      <trkpt lat="47.23074" lon="0.11411">
        <ele>34</ele>
        <time>2021-07-29T09:21:45Z</time>
      </trkpt>
      <trkpt lat="47.23069" lon="0.11395">
        <ele>34</ele>
        <time>2021-07-29T09:21:54Z</time>
      </trkpt>
      <trkpt lat="47.23065" lon="0.1138">
        <ele>34</ele>
        <time>2021-07-29T09:22:03Z</time>
      </trkpt>
      <trkpt lat="47.2306" lon="0.11366">
        <ele>34</ele>
        <time>2021-07-29T09:22:12Z</time>
      </trkpt>
      <trkpt lat="47.23056" lon="0.11349">
        <ele>34</ele>
        <time>2021-07-29T09:22:21Z</time>
      </trkpt>
      <trkpt lat="47.2305" lon="0.11338">
        <ele>34</ele>
        <time>2021-07-29T09:22:29Z</time>
      </trkpt>
      <trkpt lat="47.23047" lon="0.11323">
        <ele>34</ele>
        <time>2021-07-29T09:22:38Z</time>
      </trkpt>
      <trkpt lat="47.23043" lon="0.11306">
        <ele>34</ele>
        <time>2021-07-29T09:22:47Z</time>
      </trkpt>
      <trkpt lat="47.2304" lon="0.11291">
        <ele>34</ele>
        <time>2021-07-29T09:22:55Z</time>
      </trkpt>
      <trkpt lat="47.23034" lon="0.11283">
        <ele>34</ele>
        <time>2021-07-29T09:23:10Z</time>
      </trkpt>
      <trkpt lat="47.2303" lon="0.11267">
        <ele>34</ele>
        <time>2021-07-29T09:23:32Z</time>
      </trkpt>
      <trkpt lat="47.23024" lon="0.11251">
        <ele>34</ele>
        <time>2021-07-29T09:23:41Z</time>
      </trkpt>
      <trkpt lat="47.23019" lon="0.11239">
        <ele>34</ele>
        <time>2021-07-29T09:23:49Z</time>
      </trkpt>
      <trkpt lat="47.23015" lon="0.11226">
        <ele>34</ele>
        <time>2021-07-29T09:24:01Z</time>
      </trkpt>
      <trkpt lat="47.2301" lon="0.11214">
        <ele>34</ele>
        <time>2021-07-29T09:24:34Z</time>
      </trkpt>
      <trkpt lat="47.23006" lon="0.11202">
        <ele>34</ele>
        <time>2021-07-29T09:24:42Z</time>
      </trkpt>
      <trkpt lat="47.23001" lon="0.11189">
        <ele>33</ele>
        <time>2021-07-29T09:24:52Z</time>
      </trkpt>
      <trkpt lat="47.22996" lon="0.11175">
        <ele>33</ele>
        <time>2021-07-29T09:25:00Z</time>
      </trkpt>
      <trkpt lat="47.22991" lon="0.11164">
        <ele>33</ele>
        <time>2021-07-29T09:25:07Z</time>
      </trkpt>
      <trkpt lat="47.22985" lon="0.11151">
        <ele>33</ele>
        <time>2021-07-29T09:25:15Z</time>
      </trkpt>
      <trkpt lat="47.2298" lon="0.11139">
        <ele>34</ele>
        <time>2021-07-29T09:25:23Z</time>
      </trkpt>
      <trkpt lat="47.22974" lon="0.11126">
        <ele>33</ele>
        <time>2021-07-29T09:25:31Z</time>
      </trkpt>
      <trkpt lat="47.22968" lon="0.11113">
        <ele>34</ele>
        <time>2021-07-29T09:25:39Z</time>
      </trkpt>
      <trkpt lat="47.22962" lon="0.11102">
        <ele>34</ele>
        <time>2021-07-29T09:25:47Z</time>
      </trkpt>
      <trkpt lat="47.22956" lon="0.1109">
        <ele>34</ele>
        <time>2021-07-29T09:25:56Z</time>
      </trkpt>
      <trkpt lat="47.22949" lon="0.11077">
        <ele>34</ele>
        <time>2021-07-29T09:26:04Z</time>
      </trkpt>
      <trkpt lat="47.22943" lon="0.11065">
        <ele>34</ele>
        <time>2021-07-29T09:26:12Z</time>
      </trkpt>
      <trkpt lat="47.22936" lon="0.1105">
        <ele>34</ele>
        <time>2021-07-29T09:26:23Z</time>
      </trkpt>
      <trkpt lat="47.2293" lon="0.11036">
        <ele>34</ele>
        <time>2021-07-29T09:26:32Z</time>
      </trkpt>
      <trkpt lat="47.22927" lon="0.11023">
        <ele>34</ele>
        <time>2021-07-29T09:26:46Z</time>
      </trkpt>
      <trkpt lat="47.22917" lon="0.11013">
        <ele>34</ele>
        <time>2021-07-29T09:27:53Z</time>
      </trkpt>
      <trkpt lat="47.2291" lon="0.11002">
        <ele>33</ele>
        <time>2021-07-29T09:28:02Z</time>
      </trkpt>
      <trkpt lat="47.22903" lon="0.10992">
        <ele>33</ele>
        <time>2021-07-29T09:28:12Z</time>
      </trkpt>
      <trkpt lat="47.22896" lon="0.1098">
        <ele>33</ele>
        <time>2021-07-29T09:28:21Z</time>
      </trkpt>
      <trkpt lat="47.22889" lon="0.10968">
        <ele>33</ele>
        <time>2021-07-29T09:28:31Z</time>
      </trkpt>
      <trkpt lat="47.22881" lon="0.10956">
        <ele>33</ele>
        <time>2021-07-29T09:28:42Z</time>
      </trkpt>
      <trkpt lat="47.22875" lon="0.10944">
        <ele>33</ele>
        <time>2021-07-29T09:28:51Z</time>
      </trkpt>
      <trkpt lat="47.22867" lon="0.10928">
        <ele>33</ele>
        <time>2021-07-29T09:29:01Z</time>
      </trkpt>
      <trkpt lat="47.2286" lon="0.10912">
        <ele>33</ele>
        <time>2021-07-29T09:29:09Z</time>
      </trkpt>
      <trkpt lat="47.22852" lon="0.10901">
        <ele>33</ele>
        <time>2021-07-29T09:29:18Z</time>
      </trkpt>
      <trkpt lat="47.22843" lon="0.10893">
        <ele>33</ele>
        <time>2021-07-29T09:29:28Z</time>
      </trkpt>
      <trkpt lat="47.22835" lon="0.10882">
        <ele>33</ele>
        <time>2021-07-29T09:29:37Z</time>
      </trkpt>
      <trkpt lat="47.22827" lon="0.10868">
        <ele>33</ele>
        <time>2021-07-29T09:29:47Z</time>
      </trkpt>
      <trkpt lat="47.2282" lon="0.10858">
        <ele>33</ele>
        <time>2021-07-29T09:29:55Z</time>
      </trkpt>
      <trkpt lat="47.22813" lon="0.10842">
        <ele>33</ele>
        <time>2021-07-29T09:30:03Z</time>
      </trkpt>
      <trkpt lat="47.22804" lon="0.1083">
        <ele>33</ele>
        <time>2021-07-29T09:30:12Z</time>
      </trkpt>
      <trkpt lat="47.22797" lon="0.10816">
        <ele>33</ele>
        <time>2021-07-29T09:30:21Z</time>
      </trkpt>
      <trkpt lat="47.22792" lon="0.10801">
        <ele>33</ele>
        <time>2021-07-29T09:30:31Z</time>
      </trkpt>
      <trkpt lat="47.22786" lon="0.10785">
        <ele>33</ele>
        <time>2021-07-29T09:30:41Z</time>
      </trkpt>
      <trkpt lat="47.22782" lon="0.10766">
        <ele>33</ele>
        <time>2021-07-29T09:30:49Z</time>
      </trkpt>
      <trkpt lat="47.22778" lon="0.1075">
        <ele>33</ele>
        <time>2021-07-29T09:30:57Z</time>
      </trkpt>
      <trkpt lat="47.22774" lon="0.10735">
        <ele>33</ele>
        <time>2021-07-29T09:31:05Z</time>
      </trkpt>
      <trkpt lat="47.22771" lon="0.10721">
        <ele>33</ele>
        <time>2021-07-29T09:31:13Z</time>
      </trkpt>
      <trkpt lat="47.22765" lon="0.10705">
        <ele>33</ele>
        <time>2021-07-29T09:31:22Z</time>
      </trkpt>
      <trkpt lat="47.22759" lon="0.1069">
        <ele>33</ele>
        <time>2021-07-29T09:31:31Z</time>
      </trkpt>
      <trkpt lat="47.22752" lon="0.10675">
        <ele>33</ele>
        <time>2021-07-29T09:31:41Z</time>
      </trkpt>
      <trkpt lat="47.22749" lon="0.10659">
        <ele>33</ele>
        <time>2021-07-29T09:31:50Z</time>
      </trkpt>
      <trkpt lat="47.22742" lon="0.10645">
        <ele>33</ele>
        <time>2021-07-29T09:32:02Z</time>
      </trkpt>
      <trkpt lat="47.22735" lon="0.10632">
        <ele>33</ele>
        <time>2021-07-29T09:32:11Z</time>
      </trkpt>
      <trkpt lat="47.22729" lon="0.10618">
        <ele>33</ele>
        <time>2021-07-29T09:32:20Z</time>
      </trkpt>
      <trkpt lat="47.22723" lon="0.10603">
        <ele>33</ele>
        <time>2021-07-29T09:32:30Z</time>
      </trkpt>
      <trkpt lat="47.22717" lon="0.10589">
        <ele>33</ele>
        <time>2021-07-29T09:32:40Z</time>
      </trkpt>
      <trkpt lat="47.2271" lon="0.10572">
        <ele>33</ele>
        <time>2021-07-29T09:32:50Z</time>
      </trkpt>
      <trkpt lat="47.22702" lon="0.10554">
        <ele>33</ele>
        <time>2021-07-29T09:32:59Z</time>
      </trkpt>
      <trkpt lat="47.22692" lon="0.10539">
        <ele>33</ele>
        <time>2021-07-29T09:33:09Z</time>
      </trkpt>
      <trkpt lat="47.22685" lon="0.10524">
        <ele>34</ele>
        <time>2021-07-29T09:33:19Z</time>
      </trkpt>
      <trkpt lat="47.22676" lon="0.10511">
        <ele>33</ele>
        <time>2021-07-29T09:33:28Z</time>
      </trkpt>
      <trkpt lat="47.22669" lon="0.10497">
        <ele>33</ele>
        <time>2021-07-29T09:33:40Z</time>
      </trkpt>
      <trkpt lat="47.22659" lon="0.10484">
        <ele>33</ele>
        <time>2021-07-29T09:33:50Z</time>
      </trkpt>
      <trkpt lat="47.22649" lon="0.10473">
        <ele>33</ele>
        <time>2021-07-29T09:34:00Z</time>
      </trkpt>
      <trkpt lat="47.22641" lon="0.10462">
        <ele>32</ele>
        <time>2021-07-29T09:34:10Z</time>
      </trkpt>
      <trkpt lat="47.22635" lon="0.1045">
        <ele>32</ele>
        <time>2021-07-29T09:34:20Z</time>
      </trkpt>
      <trkpt lat="47.22625" lon="0.10439">
        <ele>32</ele>
        <time>2021-07-29T09:34:35Z</time>
      </trkpt>
      <trkpt lat="47.22618" lon="0.10428">
        <ele>32</ele>
        <time>2021-07-29T09:34:51Z</time>
      </trkpt>
      <trkpt lat="47.2261" lon="0.1042">
        <ele>32</ele>
        <time>2021-07-29T09:35:17Z</time>
      </trkpt>
      <trkpt lat="47.22601" lon="0.10412">
        <ele>32</ele>
        <time>2021-07-29T09:35:28Z</time>
      </trkpt>
      <trkpt lat="47.22593" lon="0.10399">
        <ele>32</ele>
        <time>2021-07-29T09:35:38Z</time>
      </trkpt>
      <trkpt lat="47.22585" lon="0.10386">
        <ele>32</ele>
        <time>2021-07-29T09:35:48Z</time>
      </trkpt>
      <trkpt lat="47.22578" lon="0.10372">
        <ele>32</ele>
        <time>2021-07-29T09:35:57Z</time>
      </trkpt>
      <trkpt lat="47.22571" lon="0.10357">
        <ele>32</ele>
        <time>2021-07-29T09:36:08Z</time>
      </trkpt>
      <trkpt lat="47.22564" lon="0.1034">
        <ele>32</ele>
        <time>2021-07-29T09:36:17Z</time>
      </trkpt>
      <trkpt lat="47.22558" lon="0.10326">
        <ele>33</ele>
        <time>2021-07-29T09:36:26Z</time>
      </trkpt>
      <trkpt lat="47.2255" lon="0.10312">
        <ele>33</ele>
        <time>2021-07-29T09:36:37Z</time>
      </trkpt>
      <trkpt lat="47.22542" lon="0.10297">
        <ele>33</ele>
        <time>2021-07-29T09:36:47Z</time>
      </trkpt>
      <trkpt lat="47.22537" lon="0.10283">
        <ele>33</ele>
        <time>2021-07-29T09:36:55Z</time>
      </trkpt>
      <trkpt lat="47.22531" lon="0.10269">
        <ele>32</ele>
        <time>2021-07-29T09:37:05Z</time>
      </trkpt>
      <trkpt lat="47.22524" lon="0.10255">
        <ele>32</ele>
        <time>2021-07-29T09:37:14Z</time>
      </trkpt>
      <trkpt lat="47.22517" lon="0.1024">
        <ele>32</ele>
        <time>2021-07-29T09:37:22Z</time>
      </trkpt>
      <trkpt lat="47.22509" lon="0.10224">
        <ele>32</ele>
        <time>2021-07-29T09:37:30Z</time>
      </trkpt>
      <trkpt lat="47.22502" lon="0.10211">
        <ele>33</ele>
        <time>2021-07-29T09:37:38Z</time>
      </trkpt>
      <trkpt lat="47.22495" lon="0.10199">
        <ele>33</ele>
        <time>2021-07-29T09:37:47Z</time>
      </trkpt>
      <trkpt lat="47.22489" lon="0.10187">
        <ele>33</ele>
        <time>2021-07-29T09:37:56Z</time>
      </trkpt>
      <trkpt lat="47.22483" lon="0.10172">
        <ele>33</ele>
        <time>2021-07-29T09:38:05Z</time>
      </trkpt>
      <trkpt lat="47.22478" lon="0.10159">
        <ele>33</ele>
        <time>2021-07-29T09:38:14Z</time>
      </trkpt>
      <trkpt lat="47.22474" lon="0.10142">
        <ele>33</ele>
        <time>2021-07-29T09:38:23Z</time>
      </trkpt>
      <trkpt lat="47.22469" lon="0.10126">
        <ele>33</ele>
        <time>2021-07-29T09:38:32Z</time>
      </trkpt>
      <trkpt lat="47.22467" lon="0.10109">
        <ele>33</ele>
        <time>2021-07-29T09:38:41Z</time>
      </trkpt>
      <trkpt lat="47.22462" lon="0.10093">
        <ele>33</ele>
        <time>2021-07-29T09:38:50Z</time>
      </trkpt>
      <trkpt lat="47.22458" lon="0.10077">
        <ele>33</ele>
        <time>2021-07-29T09:38:59Z</time>
      </trkpt>
      <trkpt lat="47.22453" lon="0.10061">
        <ele>33</ele>
        <time>2021-07-29T09:39:07Z</time>
      </trkpt>
      <trkpt lat="47.22449" lon="0.10044">
        <ele>33</ele>
        <time>2021-07-29T09:39:15Z</time>
      </trkpt>
      <trkpt lat="47.22444" lon="0.10026">
        <ele>33</ele>
        <time>2021-07-29T09:39:24Z</time>
      </trkpt>
      <trkpt lat="47.22439" lon="0.1001">
        <ele>33</ele>
        <time>2021-07-29T09:39:32Z</time>
      </trkpt>
      <trkpt lat="47.22435" lon="0.09995">
        <ele>33</ele>
        <time>2021-07-29T09:39:40Z</time>
      </trkpt>
      <trkpt lat="47.2243" lon="0.0998">
        <ele>33</ele>
        <time>2021-07-29T09:39:49Z</time>
      </trkpt>
      <trkpt lat="47.22426" lon="0.09964">
        <ele>33</ele>
        <time>2021-07-29T09:39:58Z</time>
      </trkpt>
      <trkpt lat="47.22422" lon="0.09949">
        <ele>33</ele>
        <time>2021-07-29T09:40:07Z</time>
      </trkpt>
      <trkpt lat="47.22416" lon="0.09933">
        <ele>33</ele>
        <time>2021-07-29T09:40:17Z</time>
      </trkpt>
      <trkpt lat="47.2241" lon="0.09918">
        <ele>33</ele>
        <time>2021-07-29T09:40:27Z</time>
      </trkpt>
      <trkpt lat="47.22404" lon="0.09903">
        <ele>33</ele>
        <time>2021-07-29T09:40:36Z</time>
      </trkpt>
      <trkpt lat="47.22399" lon="0.09886">
        <ele>33</ele>
        <time>2021-07-29T09:40:48Z</time>
      </trkpt>
      <trkpt lat="47.22396" lon="0.09872">
        <ele>33</ele>
        <time>2021-07-29T09:40:59Z</time>
      </trkpt>
      <trkpt lat="47.2239" lon="0.09859">
        <ele>33</ele>
        <time>2021-07-29T09:41:09Z</time>
      </trkpt>
      <trkpt lat="47.22383" lon="0.09844">
        <ele>32</ele>
        <time>2021-07-29T09:41:20Z</time>
      </trkpt>
      <trkpt lat="47.22373" lon="0.09828">
        <ele>32</ele>
        <time>2021-07-29T09:41:31Z</time>
      </trkpt>
      <trkpt lat="47.22363" lon="0.0981">
        <ele>32</ele>
        <time>2021-07-29T09:41:42Z</time>
      </trkpt>
      <trkpt lat="47.22354" lon="0.09798">
        <ele>32</ele>
        <time>2021-07-29T09:41:54Z</time>
      </trkpt>
      <trkpt lat="47.22346" lon="0.09783">
        <ele>32</ele>
        <time>2021-07-29T09:42:06Z</time>
      </trkpt>
      <trkpt lat="47.2234" lon="0.09765">
        <ele>32</ele>
        <time>2021-07-29T09:42:19Z</time>
      </trkpt>
      <trkpt lat="47.22334" lon="0.09744">
        <ele>32</ele>
        <time>2021-07-29T09:42:32Z</time>
      </trkpt>
      <trkpt lat="47.22328" lon="0.09722">
        <ele>32</ele>
        <time>2021-07-29T09:42:42Z</time>
      </trkpt>
      <trkpt lat="47.2232" lon="0.09707">
        <ele>33</ele>
        <time>2021-07-29T09:42:51Z</time>
      </trkpt>
      <trkpt lat="47.22316" lon="0.09689">
        <ele>33</ele>
        <time>2021-07-29T09:43:01Z</time>
      </trkpt>
      <trkpt lat="47.22312" lon="0.09671">
        <ele>33</ele>
        <time>2021-07-29T09:43:10Z</time>
      </trkpt>
      <trkpt lat="47.22307" lon="0.09651">
        <ele>33</ele>
        <time>2021-07-29T09:43:19Z</time>
      </trkpt>
      <trkpt lat="47.223" lon="0.09636">
        <ele>33</ele>
        <time>2021-07-29T09:43:29Z</time>
      </trkpt>
      <trkpt lat="47.22295" lon="0.09619">
        <ele>33</ele>
        <time>2021-07-29T09:43:38Z</time>
      </trkpt>
      <trkpt lat="47.22288" lon="0.09604">
        <ele>33</ele>
        <time>2021-07-29T09:43:47Z</time>
      </trkpt>
      <trkpt lat="47.22277" lon="0.09591">
        <ele>33</ele>
        <time>2021-07-29T09:44:00Z</time>
      </trkpt>
      <trkpt lat="47.22271" lon="0.09576">
        <ele>33</ele>
        <time>2021-07-29T09:44:12Z</time>
      </trkpt>
      <trkpt lat="47.22262" lon="0.09559">
        <ele>33</ele>
        <time>2021-07-29T09:44:22Z</time>
      </trkpt>
      <trkpt lat="47.22257" lon="0.09548">
        <ele>33</ele>
        <time>2021-07-29T09:44:38Z</time>
      </trkpt>
      <trkpt lat="47.2225" lon="0.09538">
        <ele>33</ele>
        <time>2021-07-29T09:45:03Z</time>
      </trkpt>
      <trkpt lat="47.22241" lon="0.09527">
        <ele>32</ele>
        <time>2021-07-29T09:45:15Z</time>
      </trkpt>
      <trkpt lat="47.22233" lon="0.09518">
        <ele>32</ele>
        <time>2021-07-29T09:45:25Z</time>
      </trkpt>
      <trkpt lat="47.22225" lon="0.09507">
        <ele>32</ele>
        <time>2021-07-29T09:45:35Z</time>
      </trkpt>
      <trkpt lat="47.22216" lon="0.09495">
        <ele>32</ele>
        <time>2021-07-29T09:45:44Z</time>
      </trkpt>
      <trkpt lat="47.22208" lon="0.09482">
        <ele>32</ele>
        <time>2021-07-29T09:45:53Z</time>
      </trkpt>
      <trkpt lat="47.22201" lon="0.09467">
        <ele>32</ele>
        <time>2021-07-29T09:46:01Z</time>
      </trkpt>
      <trkpt lat="47.22194" lon="0.09454">
        <ele>32</ele>
        <time>2021-07-29T09:46:10Z</time>
      </trkpt>
      <trkpt lat="47.22188" lon="0.09439">
        <ele>32</ele>
        <time>2021-07-29T09:46:19Z</time>
      </trkpt>
      <trkpt lat="47.22183" lon="0.09424">
        <ele>32</ele>
        <time>2021-07-29T09:46:29Z</time>
      </trkpt>
      <trkpt lat="47.22179" lon="0.0941">
        <ele>32</ele>
        <time>2021-07-29T09:46:46Z</time>
      </trkpt>
      <trkpt lat="47.22174" lon="0.09393">
        <ele>32</ele>
        <time>2021-07-29T09:46:57Z</time>
      </trkpt>
      <trkpt lat="47.22168" lon="0.09377">
        <ele>33</ele>
        <time>2021-07-29T09:47:06Z</time>
      </trkpt>
      <trkpt lat="47.22164" lon="0.0936">
        <ele>33</ele>
        <time>2021-07-29T09:47:18Z</time>
      </trkpt>
      <trkpt lat="47.22163" lon="0.09352">
        <ele>33</ele>
        <time>2021-07-29T09:48:09Z</time>
      </trkpt>
      <trkpt lat="47.22162" lon="0.09338">
        <ele>33</ele>
        <time>2021-07-29T09:48:37Z</time>
      </trkpt>
      <trkpt lat="47.22162" lon="0.09316">
        <ele>33</ele>
        <time>2021-07-29T09:48:51Z</time>
      </trkpt>
      <trkpt lat="47.22161" lon="0.09299">
        <ele>33</ele>
        <time>2021-07-29T09:49:10Z</time>
      </trkpt>
      <trkpt lat="47.22162" lon="0.09298">
        <ele>33</ele>
        <time>2021-07-29T09:49:58Z</time>
      </trkpt>
      <trkpt lat="47.22162" lon="0.09282">
        <ele>33</ele>
        <time>2021-07-29T09:50:53Z</time>
      </trkpt>
      <trkpt lat="47.22164" lon="0.09268">
        <ele>33</ele>
        <time>2021-07-29T09:51:04Z</time>
      </trkpt>
      <trkpt lat="47.22166" lon="0.09252">
        <ele>33</ele>
        <time>2021-07-29T09:51:14Z</time>
      </trkpt>
      <trkpt lat="47.22173" lon="0.09236">
        <ele>33</ele>
        <time>2021-07-29T09:51:24Z</time>
      </trkpt>
      <trkpt lat="47.22181" lon="0.09221">
        <ele>33</ele>
        <time>2021-07-29T09:51:36Z</time>
      </trkpt>
      <trkpt lat="47.22194" lon="0.09217">
        <ele>33</ele>
        <time>2021-07-29T09:51:46Z</time>
      </trkpt>
      <trkpt lat="47.22206" lon="0.09217">
        <ele>32</ele>
        <time>2021-07-29T09:51:56Z</time>
      </trkpt>
      <trkpt lat="47.2222" lon="0.0922">
        <ele>32</ele>
        <time>2021-07-29T09:52:06Z</time>
      </trkpt>
      <trkpt lat="47.22232" lon="0.09225">
        <ele>32</ele>
        <time>2021-07-29T09:52:18Z</time>
      </trkpt>
      <trkpt lat="47.2224" lon="0.09223">
        <ele>32</ele>
        <time>2021-07-29T09:52:47Z</time>
      </trkpt>
      <trkpt lat="47.22229" lon="0.0922">
        <ele>33</ele>
        <time>2021-07-29T09:53:03Z</time>
      </trkpt>
      <trkpt lat="47.22218" lon="0.0922">
        <ele>33</ele>
        <time>2021-07-29T09:53:14Z</time>
      </trkpt>
      <trkpt lat="47.2221" lon="0.09218">
        <ele>33</ele>
        <time>2021-07-29T09:53:45Z</time>
      </trkpt>
      <trkpt lat="47.22208" lon="0.09207">
        <ele>33</ele>
        <time>2021-07-29T09:54:16Z</time>
      </trkpt>
      <trkpt lat="47.22208" lon="0.09192">
        <ele>34</ele>
        <time>2021-07-29T09:54:26Z</time>
      </trkpt>
      <trkpt lat="47.22206" lon="0.09174">
        <ele>34</ele>
        <time>2021-07-29T09:54:35Z</time>
      </trkpt>
      <trkpt lat="47.22201" lon="0.09161">
        <ele>33</ele>
        <time>2021-07-29T09:54:42Z</time>
      </trkpt>
      <trkpt lat="47.22196" lon="0.09149">
        <ele>33</ele>
        <time>2021-07-29T09:54:49Z</time>
      </trkpt>
      <trkpt lat="47.2219" lon="0.09135">
        <ele>33</ele>
        <time>2021-07-29T09:54:58Z</time>
      </trkpt>
      <trkpt lat="47.22186" lon="0.09121">
        <ele>34</ele>
        <time>2021-07-29T09:55:07Z</time>
      </trkpt>
      <trkpt lat="47.2218" lon="0.09108">
        <ele>34</ele>
        <time>2021-07-29T09:55:27Z</time>
      </trkpt>
      <trkpt lat="47.22177" lon="0.09094">
        <ele>33</ele>
        <time>2021-07-29T09:55:36Z</time>
      </trkpt>
      <trkpt lat="47.22175" lon="0.09081">
        <ele>33</ele>
        <time>2021-07-29T09:55:45Z</time>
      </trkpt>
      <trkpt lat="47.22172" lon="0.09067">
        <ele>34</ele>
        <time>2021-07-29T09:55:54Z</time>
      </trkpt>
      <trkpt lat="47.22168" lon="0.09054">
        <ele>33</ele>
        <time>2021-07-29T09:56:06Z</time>
      </trkpt>
      <trkpt lat="47.22163" lon="0.0904">
        <ele>33</ele>
        <time>2021-07-29T09:56:15Z</time>
      </trkpt>
      <trkpt lat="47.22157" lon="0.09027">
        <ele>33</ele>
        <time>2021-07-29T09:56:23Z</time>
      </trkpt>
      <trkpt lat="47.22151" lon="0.09014">
        <ele>33</ele>
        <time>2021-07-29T09:56:32Z</time>
      </trkpt>
      <trkpt lat="47.22146" lon="0.08997">
        <ele>33</ele>
        <time>2021-07-29T09:56:39Z</time>
      </trkpt>
      <trkpt lat="47.2214" lon="0.08983">
        <ele>33</ele>
        <time>2021-07-29T09:56:47Z</time>
      </trkpt>
      <trkpt lat="47.22135" lon="0.08971">
        <ele>33</ele>
        <time>2021-07-29T09:56:54Z</time>
      </trkpt>
      <trkpt lat="47.22131" lon="0.08958">
        <ele>33</ele>
        <time>2021-07-29T09:57:01Z</time>
      </trkpt>
      <trkpt lat="47.22128" lon="0.08943">
        <ele>33</ele>
        <time>2021-07-29T09:57:09Z</time>
      </trkpt>
      <trkpt lat="47.22126" lon="0.08929">
        <ele>33</ele>
        <time>2021-07-29T09:57:17Z</time>
      </trkpt>
      <trkpt lat="47.22123" lon="0.08914">
        <ele>33</ele>
        <time>2021-07-29T09:57:25Z</time>
      </trkpt>
      <trkpt lat="47.2212" lon="0.089">
        <ele>33</ele>
        <time>2021-07-29T09:57:32Z</time>
      </trkpt>
      <trkpt lat="47.22116" lon="0.08887">
        <ele>33</ele>
        <time>2021-07-29T09:57:39Z</time>
      </trkpt>
      <trkpt lat="47.2211" lon="0.08876">
        <ele>33</ele>
        <time>2021-07-29T09:57:46Z</time>
      </trkpt>
      <trkpt lat="47.22103" lon="0.08867">
        <ele>33</ele>
        <time>2021-07-29T09:57:53Z</time>
      </trkpt>
      <trkpt lat="47.22097" lon="0.08857">
        <ele>33</ele>
        <time>2021-07-29T09:58:00Z</time>
      </trkpt>
      <trkpt lat="47.22093" lon="0.08844">
        <ele>33</ele>
        <time>2021-07-29T09:58:07Z</time>
      </trkpt>
      <trkpt lat="47.22087" lon="0.08834">
        <ele>33</ele>
        <time>2021-07-29T09:58:14Z</time>
      </trkpt>
      <trkpt lat="47.22082" lon="0.08823">
        <ele>33</ele>
        <time>2021-07-29T09:58:22Z</time>
      </trkpt>
      <trkpt lat="47.22077" lon="0.08818">
        <ele>33</ele>
        <time>2021-07-29T09:59:04Z</time>
      </trkpt>
      <trkpt lat="47.22073" lon="0.08815">
        <ele>33</ele>
        <time>2021-07-29T09:59:42Z</time>
      </trkpt>
      <trkpt lat="47.22065" lon="0.08806">
        <ele>33</ele>
        <time>2021-07-29T09:59:51Z</time>
      </trkpt>
      <trkpt lat="47.22059" lon="0.08795">
        <ele>33</ele>
        <time>2021-07-29T09:59:59Z</time>
      </trkpt>
      <trkpt lat="47.22054" lon="0.08781">
        <ele>33</ele>
        <time>2021-07-29T10:00:07Z</time>
      </trkpt>
      <trkpt lat="47.22049" lon="0.08768">
        <ele>33</ele>
        <time>2021-07-29T10:00:15Z</time>
      </trkpt>
      <trkpt lat="47.22044" lon="0.08755">
        <ele>33</ele>
        <time>2021-07-29T10:00:23Z</time>
      </trkpt>
      <trkpt lat="47.22039" lon="0.08742">
        <ele>33</ele>
        <time>2021-07-29T10:00:31Z</time>
      </trkpt>
      <trkpt lat="47.22033" lon="0.08729">
        <ele>33</ele>
        <time>2021-07-29T10:00:39Z</time>
      </trkpt>
      <trkpt lat="47.22028" lon="0.08717">
        <ele>33</ele>
        <time>2021-07-29T10:00:46Z</time>
      </trkpt>
      <trkpt lat="47.22024" lon="0.08703">
        <ele>34</ele>
        <time>2021-07-29T10:00:53Z</time>
      </trkpt>
      <trkpt lat="47.2202" lon="0.08691">
        <ele>34</ele>
        <time>2021-07-29T10:01:01Z</time>
      </trkpt>
      <trkpt lat="47.22017" lon="0.08677">
        <ele>33</ele>
        <time>2021-07-29T10:01:08Z</time>
      </trkpt>
      <trkpt lat="47.2201" lon="0.08664">
        <ele>34</ele>
        <time>2021-07-29T10:01:16Z</time>
      </trkpt>
      <trkpt lat="47.22005" lon="0.08649">
        <ele>33</ele>
        <time>2021-07-29T10:01:24Z</time>
      </trkpt>
      <trkpt lat="47.22" lon="0.08637">
        <ele>33</ele>
        <time>2021-07-29T10:01:31Z</time>
      </trkpt>
      <trkpt lat="47.21997" lon="0.08623">
        <ele>33</ele>
        <time>2021-07-29T10:01:39Z</time>
      </trkpt>
      <trkpt lat="47.21993" lon="0.0861">
        <ele>33</ele>
        <time>2021-07-29T10:01:47Z</time>
      </trkpt>
      <trkpt lat="47.21988" lon="0.08598">
        <ele>33</ele>
        <time>2021-07-29T10:01:55Z</time>
      </trkpt>
      <trkpt lat="47.21984" lon="0.08584">
        <ele>33</ele>
        <time>2021-07-29T10:02:04Z</time>
      </trkpt>
      <trkpt lat="47.2198" lon="0.08571">
        <ele>33</ele>
        <time>2021-07-29T10:02:11Z</time>
      </trkpt>
      <trkpt lat="47.21977" lon="0.08557">
        <ele>34</ele>
        <time>2021-07-29T10:02:19Z</time>
      </trkpt>
      <trkpt lat="47.21973" lon="0.08542">
        <ele>33</ele>
        <time>2021-07-29T10:02:27Z</time>
      </trkpt>
      <trkpt lat="47.21969" lon="0.08528">
        <ele>33</ele>
        <time>2021-07-29T10:02:34Z</time>
      </trkpt>
      <trkpt lat="47.21965" lon="0.08515">
        <ele>33</ele>
        <time>2021-07-29T10:02:42Z</time>
      </trkpt>
      <trkpt lat="47.21962" lon="0.08501">
        <ele>33</ele>
        <time>2021-07-29T10:02:50Z</time>
      </trkpt>
      <trkpt lat="47.21959" lon="0.08489">
        <ele>33</ele>
        <time>2021-07-29T10:02:56Z</time>
      </trkpt>
      <trkpt lat="47.21956" lon="0.08476">
        <ele>34</ele>
        <time>2021-07-29T10:03:04Z</time>
      </trkpt>
      <trkpt lat="47.21952" lon="0.08463">
        <ele>34</ele>
        <time>2021-07-29T10:03:11Z</time>
      </trkpt>
      <trkpt lat="47.2195" lon="0.08449">
        <ele>33</ele>
        <time>2021-07-29T10:03:18Z</time>
      </trkpt>
      <trkpt lat="47.21947" lon="0.08438">
        <ele>33</ele>
        <time>2021-07-29T10:03:25Z</time>
      </trkpt>
      <trkpt lat="47.21942" lon="0.08425">
        <ele>33</ele>
        <time>2021-07-29T10:03:35Z</time>
      </trkpt>
      <trkpt lat="47.21937" lon="0.08412">
        <ele>33</ele>
        <time>2021-07-29T10:03:43Z</time>
      </trkpt>
      <trkpt lat="47.21932" lon="0.084">
        <ele>33</ele>
        <time>2021-07-29T10:03:50Z</time>
      </trkpt>
      <trkpt lat="47.21926" lon="0.08388">
        <ele>33</ele>
        <time>2021-07-29T10:03:58Z</time>
      </trkpt>
      <trkpt lat="47.21921" lon="0.08377">
        <ele>33</ele>
        <time>2021-07-29T10:04:05Z</time>
      </trkpt>
      <trkpt lat="47.21916" lon="0.08365">
        <ele>33</ele>
        <time>2021-07-29T10:04:12Z</time>
      </trkpt>
      <trkpt lat="47.21912" lon="0.08353">
        <ele>34</ele>
        <time>2021-07-29T10:04:19Z</time>
      </trkpt>
      <trkpt lat="47.21907" lon="0.08341">
        <ele>34</ele>
        <time>2021-07-29T10:04:26Z</time>
      </trkpt>
      <trkpt lat="47.21903" lon="0.08328">
        <ele>34</ele>
        <time>2021-07-29T10:04:33Z</time>
      </trkpt>
      <trkpt lat="47.21898" lon="0.08316">
        <ele>34</ele>
        <time>2021-07-29T10:04:40Z</time>
      </trkpt>
      <trkpt lat="47.21893" lon="0.08305">
        <ele>34</ele>
        <time>2021-07-29T10:04:47Z</time>
      </trkpt>
      <trkpt lat="47.21888" lon="0.08293">
        <ele>33</ele>
        <time>2021-07-29T10:04:55Z</time>
      </trkpt>
      <trkpt lat="47.21882" lon="0.08281">
        <ele>34</ele>
        <time>2021-07-29T10:05:02Z</time>
      </trkpt>
      <trkpt lat="47.21877" lon="0.08268">
        <ele>34</ele>
        <time>2021-07-29T10:05:10Z</time>
      </trkpt>
      <trkpt lat="47.21871" lon="0.08258">
        <ele>34</ele>
        <time>2021-07-29T10:05:17Z</time>
      </trkpt>
      <trkpt lat="47.21865" lon="0.08245">
        <ele>34</ele>
        <time>2021-07-29T10:05:25Z</time>
      </trkpt>
      <trkpt lat="47.21859" lon="0.08235">
        <ele>34</ele>
        <time>2021-07-29T10:05:32Z</time>
      </trkpt>
      <trkpt lat="47.21852" lon="0.08223">
        <ele>34</ele>
        <time>2021-07-29T10:05:40Z</time>
      </trkpt>
      <trkpt lat="47.21845" lon="0.08214">
        <ele>34</ele>
        <time>2021-07-29T10:05:48Z</time>
      </trkpt>
      <trkpt lat="47.21838" lon="0.08206">
        <ele>34</ele>
        <time>2021-07-29T10:05:54Z</time>
      </trkpt>
      <trkpt lat="47.21831" lon="0.08196">
        <ele>34</ele>
        <time>2021-07-29T10:06:02Z</time>
      </trkpt>
      <trkpt lat="47.21823" lon="0.08187">
        <ele>34</ele>
        <time>2021-07-29T10:06:09Z</time>
      </trkpt>
      <trkpt lat="47.21816" lon="0.08176">
        <ele>34</ele>
        <time>2021-07-29T10:06:18Z</time>
      </trkpt>
      <trkpt lat="47.21807" lon="0.08172">
        <ele>34</ele>
        <time>2021-07-29T10:06:25Z</time>
      </trkpt>
      <trkpt lat="47.21798" lon="0.08168">
        <ele>34</ele>
        <time>2021-07-29T10:06:32Z</time>
      </trkpt>
      <trkpt lat="47.21789" lon="0.08166">
        <ele>34</ele>
        <time>2021-07-29T10:06:39Z</time>
      </trkpt>
      <trkpt lat="47.21779" lon="0.08164">
        <ele>34</ele>
        <time>2021-07-29T10:06:48Z</time>
      </trkpt>
      <trkpt lat="47.21772" lon="0.08152">
        <ele>34</ele>
        <time>2021-07-29T10:07:16Z</time>
      </trkpt>
      <trkpt lat="47.21768" lon="0.08138">
        <ele>34</ele>
        <time>2021-07-29T10:07:39Z</time>
      </trkpt>
      <trkpt lat="47.21764" lon="0.08123">
        <ele>34</ele>
        <time>2021-07-29T10:07:48Z</time>
      </trkpt>
      <trkpt lat="47.2176" lon="0.0811">
        <ele>34</ele>
        <time>2021-07-29T10:07:55Z</time>
      </trkpt>
      <trkpt lat="47.21756" lon="0.08097">
        <ele>34</ele>
        <time>2021-07-29T10:08:03Z</time>
      </trkpt>
      <trkpt lat="47.21753" lon="0.08084">
        <ele>34</ele>
        <time>2021-07-29T10:08:11Z</time>
      </trkpt>
      <trkpt lat="47.2175" lon="0.0807">
        <ele>34</ele>
        <time>2021-07-29T10:08:19Z</time>
      </trkpt>
      <trkpt lat="47.21749" lon="0.0806">
        <ele>34</ele>
        <time>2021-07-29T10:08:41Z</time>
      </trkpt>
      <trkpt lat="47.21746" lon="0.08053">
        <ele>34</ele>
        <time>2021-07-29T10:09:11Z</time>
      </trkpt>
      <trkpt lat="47.21742" lon="0.08034">
        <ele>34</ele>
        <time>2021-07-29T10:09:23Z</time>
      </trkpt>
      <trkpt lat="47.21738" lon="0.08018">
        <ele>34</ele>
        <time>2021-07-29T10:09:33Z</time>
      </trkpt>
      <trkpt lat="47.21734" lon="0.08005">
        <ele>34</ele>
        <time>2021-07-29T10:10:02Z</time>
      </trkpt>
      <trkpt lat="47.21731" lon="0.07992">
        <ele>34</ele>
        <time>2021-07-29T10:10:15Z</time>
      </trkpt>
      <trkpt lat="47.21727" lon="0.07972">
        <ele>34</ele>
        <time>2021-07-29T10:10:26Z</time>
      </trkpt>
      <trkpt lat="47.21722" lon="0.07952">
        <ele>34</ele>
        <time>2021-07-29T10:10:35Z</time>
      </trkpt>
      <trkpt lat="47.21717" lon="0.07935">
        <ele>34</ele>
        <time>2021-07-29T10:10:43Z</time>
      </trkpt>
      <trkpt lat="47.21713" lon="0.07921">
        <ele>34</ele>
        <time>2021-07-29T10:10:51Z</time>
      </trkpt>
      <trkpt lat="47.21709" lon="0.07908">
        <ele>34</ele>
        <time>2021-07-29T10:10:58Z</time>
      </trkpt>
      <trkpt lat="47.21707" lon="0.07893">
        <ele>34</ele>
        <time>2021-07-29T10:11:06Z</time>
      </trkpt>
      <trkpt lat="47.21707" lon="0.07879">
        <ele>34</ele>
        <time>2021-07-29T10:11:13Z</time>
      </trkpt>
      <trkpt lat="47.21707" lon="0.07863">
        <ele>34</ele>
        <time>2021-07-29T10:11:25Z</time>
      </trkpt>
      <trkpt lat="47.21709" lon="0.0785">
        <ele>34</ele>
        <time>2021-07-29T10:11:34Z</time>
      </trkpt>
      <trkpt lat="47.21712" lon="0.07837">
        <ele>34</ele>
        <time>2021-07-29T10:11:43Z</time>
      </trkpt>
      <trkpt lat="47.21711" lon="0.07823">
        <ele>34</ele>
        <time>2021-07-29T10:11:51Z</time>
      </trkpt>
      <trkpt lat="47.2171" lon="0.07808">
        <ele>34</ele>
        <time>2021-07-29T10:11:57Z</time>
      </trkpt>
      <trkpt lat="47.21709" lon="0.07794">
        <ele>35</ele>
        <time>2021-07-29T10:12:05Z</time>
      </trkpt>
      <trkpt lat="47.21711" lon="0.0778">
        <ele>35</ele>
        <time>2021-07-29T10:12:13Z</time>
      </trkpt>
      <trkpt lat="47.21712" lon="0.07766">
        <ele>35</ele>
        <time>2021-07-29T10:12:20Z</time>
      </trkpt>
      <trkpt lat="47.21712" lon="0.07754">
        <ele>35</ele>
        <time>2021-07-29T10:12:27Z</time>
      </trkpt>
      <trkpt lat="47.21713" lon="0.07742">
        <ele>35</ele>
        <time>2021-07-29T10:12:34Z</time>
      </trkpt>
      <trkpt lat="47.21714" lon="0.07729">
        <ele>35</ele>
        <time>2021-07-29T10:12:40Z</time>
      </trkpt>
      <trkpt lat="47.21711" lon="0.07716">
        <ele>35</ele>
        <time>2021-07-29T10:12:48Z</time>
      </trkpt>
      <trkpt lat="47.21712" lon="0.07705">
        <ele>35</ele>
        <time>2021-07-29T10:13:05Z</time>
      </trkpt>
      <trkpt lat="47.21712" lon="0.07688">
        <ele>35</ele>
        <time>2021-07-29T10:13:12Z</time>
      </trkpt>
      <trkpt lat="47.21716" lon="0.07674">
        <ele>35</ele>
        <time>2021-07-29T10:13:20Z</time>
      </trkpt>
      <trkpt lat="47.21715" lon="0.07661">
        <ele>35</ele>
        <time>2021-07-29T10:13:27Z</time>
      </trkpt>
      <trkpt lat="47.21716" lon="0.07651">
        <ele>35</ele>
        <time>2021-07-29T10:13:39Z</time>
      </trkpt>
      <trkpt lat="47.21716" lon="0.07644">
        <ele>35</ele>
        <time>2021-07-29T10:14:13Z</time>
      </trkpt>
      <trkpt lat="47.21718" lon="0.07625">
        <ele>35</ele>
        <time>2021-07-29T10:14:27Z</time>
      </trkpt>
      <trkpt lat="47.21717" lon="0.07609">
        <ele>35</ele>
        <time>2021-07-29T10:14:36Z</time>
      </trkpt>
      <trkpt lat="47.21715" lon="0.07601">
        <ele>35</ele>
        <time>2021-07-29T10:16:30Z</time>
      </trkpt>
      <trkpt lat="47.21715" lon="0.07586">
        <ele>35</ele>
        <time>2021-07-29T10:16:39Z</time>
      </trkpt>
      <trkpt lat="47.21716" lon="0.07571">
        <ele>35</ele>
        <time>2021-07-29T10:16:49Z</time>
      </trkpt>
      <trkpt lat="47.21716" lon="0.07558">
        <ele>35</ele>
        <time>2021-07-29T10:17:05Z</time>
      </trkpt>
      <trkpt lat="47.21717" lon="0.07543">
        <ele>35</ele>
        <time>2021-07-29T10:17:13Z</time>
      </trkpt>
      <trkpt lat="47.21717" lon="0.07529">
        <ele>35</ele>
        <time>2021-07-29T10:17:21Z</time>
      </trkpt>
      <trkpt lat="47.21719" lon="0.07511">
        <ele>35</ele>
        <time>2021-07-29T10:17:32Z</time>
      </trkpt>
      <trkpt lat="47.21721" lon="0.07494">
        <ele>35</ele>
        <time>2021-07-29T10:17:41Z</time>
      </trkpt>
      <trkpt lat="47.21723" lon="0.0748">
        <ele>35</ele>
        <time>2021-07-29T10:17:48Z</time>
      </trkpt>
      <trkpt lat="47.21725" lon="0.07465">
        <ele>35</ele>
        <time>2021-07-29T10:17:56Z</time>
      </trkpt>
      <trkpt lat="47.21729" lon="0.07451">
        <ele>35</ele>
        <time>2021-07-29T10:18:04Z</time>
      </trkpt>
      <trkpt lat="47.21732" lon="0.07436">
        <ele>35</ele>
        <time>2021-07-29T10:18:12Z</time>
      </trkpt>
      <trkpt lat="47.21734" lon="0.07421">
        <ele>35</ele>
        <time>2021-07-29T10:18:20Z</time>
      </trkpt>
      <trkpt lat="47.21736" lon="0.07406">
        <ele>35</ele>
        <time>2021-07-29T10:18:28Z</time>
      </trkpt>
      <trkpt lat="47.21737" lon="0.07392">
        <ele>35</ele>
        <time>2021-07-29T10:18:35Z</time>
      </trkpt>
      <trkpt lat="47.21737" lon="0.07376">
        <ele>35</ele>
        <time>2021-07-29T10:18:44Z</time>
      </trkpt>
      <trkpt lat="47.21741" lon="0.07359">
        <ele>35</ele>
        <time>2021-07-29T10:18:52Z</time>
      </trkpt>
      <trkpt lat="47.21743" lon="0.07343">
        <ele>35</ele>
        <time>2021-07-29T10:19:00Z</time>
      </trkpt>
      <trkpt lat="47.21744" lon="0.0733">
        <ele>35</ele>
        <time>2021-07-29T10:19:07Z</time>
      </trkpt>
      <trkpt lat="47.21746" lon="0.07315">
        <ele>36</ele>
        <time>2021-07-29T10:19:14Z</time>
      </trkpt>
      <trkpt lat="47.21747" lon="0.073">
        <ele>35</ele>
        <time>2021-07-29T10:19:22Z</time>
      </trkpt>
      <trkpt lat="47.21748" lon="0.07286">
        <ele>36</ele>
        <time>2021-07-29T10:19:30Z</time>
      </trkpt>
      <trkpt lat="47.21751" lon="0.07272">
        <ele>36</ele>
        <time>2021-07-29T10:19:37Z</time>
      </trkpt>
      <trkpt lat="47.2175" lon="0.07257">
        <ele>35</ele>
        <time>2021-07-29T10:19:45Z</time>
      </trkpt>
      <trkpt lat="47.21752" lon="0.07241">
        <ele>35</ele>
        <time>2021-07-29T10:19:54Z</time>
      </trkpt>
      <trkpt lat="47.21752" lon="0.07224">
        <ele>35</ele>
        <time>2021-07-29T10:20:02Z</time>
      </trkpt>
      <trkpt lat="47.21754" lon="0.0721">
        <ele>35</ele>
        <time>2021-07-29T10:20:09Z</time>
      </trkpt>
      <trkpt lat="47.21755" lon="0.07195">
        <ele>35</ele>
        <time>2021-07-29T10:20:16Z</time>
      </trkpt>
      <trkpt lat="47.21756" lon="0.0718">
        <ele>35</ele>
        <time>2021-07-29T10:20:24Z</time>
      </trkpt>
      <trkpt lat="47.21759" lon="0.07166">
        <ele>35</ele>
        <time>2021-07-29T10:20:31Z</time>
      </trkpt>
      <trkpt lat="47.21762" lon="0.07152">
        <ele>35</ele>
        <time>2021-07-29T10:20:39Z</time>
      </trkpt>
      <trkpt lat="47.21764" lon="0.07139">
        <ele>35</ele>
        <time>2021-07-29T10:20:47Z</time>
      </trkpt>
      <trkpt lat="47.21766" lon="0.07123">
        <ele>35</ele>
        <time>2021-07-29T10:20:56Z</time>
      </trkpt>
      <trkpt lat="47.21769" lon="0.07109">
        <ele>35</ele>
        <time>2021-07-29T10:21:28Z</time>
      </trkpt>
      <trkpt lat="47.21771" lon="0.07095">
        <ele>35</ele>
        <time>2021-07-29T10:21:37Z</time>
      </trkpt>
      <trkpt lat="47.21774" lon="0.0708">
        <ele>35</ele>
        <time>2021-07-29T10:21:46Z</time>
      </trkpt>
      <trkpt lat="47.21776" lon="0.07062">
        <ele>35</ele>
        <time>2021-07-29T10:21:54Z</time>
      </trkpt>
      <trkpt lat="47.21777" lon="0.07047">
        <ele>36</ele>
        <time>2021-07-29T10:22:03Z</time>
      </trkpt>
      <trkpt lat="47.2178" lon="0.07033">
        <ele>36</ele>
        <time>2021-07-29T10:22:11Z</time>
      </trkpt>
      <trkpt lat="47.21782" lon="0.07019">
        <ele>36</ele>
        <time>2021-07-29T10:22:18Z</time>
      </trkpt>
      <trkpt lat="47.21784" lon="0.07006">
        <ele>36</ele>
        <time>2021-07-29T10:22:25Z</time>
      </trkpt>
      <trkpt lat="47.21786" lon="0.06992">
        <ele>36</ele>
        <time>2021-07-29T10:22:33Z</time>
      </trkpt>
      <trkpt lat="47.21787" lon="0.06978">
        <ele>35</ele>
        <time>2021-07-29T10:22:41Z</time>
      </trkpt>
      <trkpt lat="47.21788" lon="0.06964">
        <ele>35</ele>
        <time>2021-07-29T10:22:48Z</time>
      </trkpt>
      <trkpt lat="47.2179" lon="0.06951">
        <ele>35</ele>
        <time>2021-07-29T10:22:56Z</time>
      </trkpt>
      <trkpt lat="47.21791" lon="0.06937">
        <ele>35</ele>
        <time>2021-07-29T10:23:03Z</time>
      </trkpt>
      <trkpt lat="47.21791" lon="0.06922">
        <ele>35</ele>
        <time>2021-07-29T10:23:11Z</time>
      </trkpt>
      <trkpt lat="47.21793" lon="0.06908">
        <ele>35</ele>
        <time>2021-07-29T10:23:19Z</time>
      </trkpt>
      <trkpt lat="47.21794" lon="0.06893">
        <ele>35</ele>
        <time>2021-07-29T10:23:26Z</time>
      </trkpt>
      <trkpt lat="47.21794" lon="0.06879">
        <ele>35</ele>
        <time>2021-07-29T10:23:34Z</time>
      </trkpt>
      <trkpt lat="47.21796" lon="0.06864">
        <ele>35</ele>
        <time>2021-07-29T10:23:41Z</time>
      </trkpt>
      <trkpt lat="47.21797" lon="0.0685">
        <ele>35</ele>
        <time>2021-07-29T10:23:48Z</time>
      </trkpt>
      <trkpt lat="47.218" lon="0.06837">
        <ele>35</ele>
        <time>2021-07-29T10:23:55Z</time>
      </trkpt>
      <trkpt lat="47.21803" lon="0.06824">
        <ele>35</ele>
        <time>2021-07-29T10:24:01Z</time>
      </trkpt>
      <trkpt lat="47.21804" lon="0.06809">
        <ele>35</ele>
        <time>2021-07-29T10:24:09Z</time>
      </trkpt>
      <trkpt lat="47.21807" lon="0.06797">
        <ele>35</ele>
        <time>2021-07-29T10:24:16Z</time>
      </trkpt>
      <trkpt lat="47.2181" lon="0.06784">
        <ele>35</ele>
        <time>2021-07-29T10:24:23Z</time>
      </trkpt>
      <trkpt lat="47.21814" lon="0.06771">
        <ele>35</ele>
        <time>2021-07-29T10:24:30Z</time>
      </trkpt>
      <trkpt lat="47.21817" lon="0.06757">
        <ele>35</ele>
        <time>2021-07-29T10:24:38Z</time>
      </trkpt>
      <trkpt lat="47.21819" lon="0.06743">
        <ele>35</ele>
        <time>2021-07-29T10:24:46Z</time>
      </trkpt>
      <trkpt lat="47.21821" lon="0.06731">
        <ele>35</ele>
        <time>2021-07-29T10:24:54Z</time>
      </trkpt>
      <trkpt lat="47.21822" lon="0.06716">
        <ele>35</ele>
        <time>2021-07-29T10:25:01Z</time>
      </trkpt>
      <trkpt lat="47.21825" lon="0.06702">
        <ele>35</ele>
        <time>2021-07-29T10:25:09Z</time>
      </trkpt>
      <trkpt lat="47.21828" lon="0.06688">
        <ele>35</ele>
        <time>2021-07-29T10:25:17Z</time>
      </trkpt>
      <trkpt lat="47.21831" lon="0.06674">
        <ele>35</ele>
        <time>2021-07-29T10:25:24Z</time>
      </trkpt>
      <trkpt lat="47.21835" lon="0.0666">
        <ele>35</ele>
        <time>2021-07-29T10:25:32Z</time>
      </trkpt>
      <trkpt lat="47.21836" lon="0.06644">
        <ele>35</ele>
        <time>2021-07-29T10:25:40Z</time>
      </trkpt>
      <trkpt lat="47.2184" lon="0.06629">
        <ele>35</ele>
        <time>2021-07-29T10:25:48Z</time>
      </trkpt>
      <trkpt lat="47.21845" lon="0.06616">
        <ele>35</ele>
        <time>2021-07-29T10:25:56Z</time>
      </trkpt>
      <trkpt lat="47.21852" lon="0.06603">
        <ele>35</ele>
        <time>2021-07-29T10:26:10Z</time>
      </trkpt>
      <trkpt lat="47.21858" lon="0.06591">
        <ele>35</ele>
        <time>2021-07-29T10:26:18Z</time>
      </trkpt>
      <trkpt lat="47.21862" lon="0.06579">
        <ele>35</ele>
        <time>2021-07-29T10:26:26Z</time>
      </trkpt>
      <trkpt lat="47.21867" lon="0.06564">
        <ele>35</ele>
        <time>2021-07-29T10:26:35Z</time>
      </trkpt>
      <trkpt lat="47.2187" lon="0.0655">
        <ele>35</ele>
        <time>2021-07-29T10:26:43Z</time>
      </trkpt>
      <trkpt lat="47.21874" lon="0.06532">
        <ele>35</ele>
        <time>2021-07-29T10:26:52Z</time>
      </trkpt>
      <trkpt lat="47.21879" lon="0.06518">
        <ele>35</ele>
        <time>2021-07-29T10:26:59Z</time>
      </trkpt>
      <trkpt lat="47.2188" lon="0.06502">
        <ele>35</ele>
        <time>2021-07-29T10:27:06Z</time>
      </trkpt>
      <trkpt lat="47.21884" lon="0.06488">
        <ele>35</ele>
        <time>2021-07-29T10:27:14Z</time>
      </trkpt>
      <trkpt lat="47.21887" lon="0.06476">
        <ele>35</ele>
        <time>2021-07-29T10:27:19Z</time>
      </trkpt>
      <trkpt lat="47.2189" lon="0.06463">
        <ele>35</ele>
        <time>2021-07-29T10:27:27Z</time>
      </trkpt>
      <trkpt lat="47.21893" lon="0.06449">
        <ele>35</ele>
        <time>2021-07-29T10:27:37Z</time>
      </trkpt>
      <trkpt lat="47.219" lon="0.06436">
        <ele>35</ele>
        <time>2021-07-29T10:27:49Z</time>
      </trkpt>
      <trkpt lat="47.21904" lon="0.06417">
        <ele>35</ele>
        <time>2021-07-29T10:27:59Z</time>
      </trkpt>
      <trkpt lat="47.21908" lon="0.06403">
        <ele>35</ele>
        <time>2021-07-29T10:28:12Z</time>
      </trkpt>
      <trkpt lat="47.21914" lon="0.06388">
        <ele>34</ele>
        <time>2021-07-29T10:28:22Z</time>
      </trkpt>
      <trkpt lat="47.21922" lon="0.06373">
        <ele>35</ele>
        <time>2021-07-29T10:28:31Z</time>
      </trkpt>
      <trkpt lat="47.21928" lon="0.0636">
        <ele>34</ele>
        <time>2021-07-29T10:28:40Z</time>
      </trkpt>
      <trkpt lat="47.21932" lon="0.06346">
        <ele>34</ele>
        <time>2021-07-29T10:28:49Z</time>
      </trkpt>
      <trkpt lat="47.21937" lon="0.06332">
        <ele>34</ele>
        <time>2021-07-29T10:28:58Z</time>
      </trkpt>
      <trkpt lat="47.21944" lon="0.06317">
        <ele>34</ele>
        <time>2021-07-29T10:29:07Z</time>
      </trkpt>
      <trkpt lat="47.21952" lon="0.063">
        <ele>34</ele>
        <time>2021-07-29T10:29:18Z</time>
      </trkpt>
      <trkpt lat="47.21962" lon="0.06291">
        <ele>34</ele>
        <time>2021-07-29T10:29:26Z</time>
      </trkpt>
      <trkpt lat="47.21968" lon="0.06278">
        <ele>35</ele>
        <time>2021-07-29T10:29:35Z</time>
      </trkpt>
      <trkpt lat="47.21974" lon="0.06267">
        <ele>35</ele>
        <time>2021-07-29T10:29:44Z</time>
      </trkpt>
      <trkpt lat="47.21981" lon="0.06253">
        <ele>34</ele>
        <time>2021-07-29T10:29:54Z</time>
      </trkpt>
      <trkpt lat="47.21991" lon="0.06236">
        <ele>34</ele>
        <time>2021-07-29T10:30:06Z</time>
      </trkpt>
      <trkpt lat="47.21993" lon="0.06223">
        <ele>34</ele>
        <time>2021-07-29T10:30:27Z</time>
      </trkpt>
      <trkpt lat="47.21995" lon="0.06221">
        <ele>33</ele>
        <time>2021-07-29T10:31:03Z</time>
      </trkpt>
      <trkpt lat="47.21994" lon="0.06216">
        <ele>34</ele>
        <time>2021-07-29T10:32:35Z</time>
      </trkpt>
      <trkpt lat="47.22001" lon="0.06205">
        <ele>35</ele>
        <time>2021-07-29T10:32:57Z</time>
      </trkpt>
      <trkpt lat="47.22007" lon="0.06194">
        <ele>35</ele>
        <time>2021-07-29T10:33:09Z</time>
      </trkpt>
      <trkpt lat="47.22014" lon="0.06181">
        <ele>35</ele>
        <time>2021-07-29T10:33:23Z</time>
      </trkpt>
      <trkpt lat="47.22019" lon="0.06162">
        <ele>35</ele>
        <time>2021-07-29T10:33:37Z</time>
      </trkpt>
      <trkpt lat="47.22024" lon="0.06145">
        <ele>35</ele>
        <time>2021-07-29T10:33:47Z</time>
      </trkpt>
      <trkpt lat="47.2203" lon="0.06133">
        <ele>35</ele>
        <time>2021-07-29T10:34:17Z</time>
      </trkpt>
      <trkpt lat="47.22032" lon="0.06122">
        <ele>35</ele>
        <time>2021-07-29T10:34:49Z</time>
      </trkpt>
      <trkpt lat="47.22037" lon="0.06107">
        <ele>35</ele>
        <time>2021-07-29T10:34:59Z</time>
      </trkpt>
      <trkpt lat="47.22042" lon="0.06094">
        <ele>35</ele>
        <time>2021-07-29T10:35:08Z</time>
      </trkpt>
      <trkpt lat="47.22047" lon="0.06081">
        <ele>35</ele>
        <time>2021-07-29T10:35:17Z</time>
      </trkpt>
      <trkpt lat="47.22052" lon="0.06067">
        <ele>35</ele>
        <time>2021-07-29T10:35:27Z</time>
      </trkpt>
      <trkpt lat="47.22056" lon="0.06053">
        <ele>35</ele>
        <time>2021-07-29T10:35:36Z</time>
      </trkpt>
      <trkpt lat="47.2206" lon="0.06037">
        <ele>35</ele>
        <time>2021-07-29T10:35:48Z</time>
      </trkpt>
      <trkpt lat="47.22065" lon="0.0602">
        <ele>34</ele>
        <time>2021-07-29T10:35:58Z</time>
      </trkpt>
      <trkpt lat="47.2207" lon="0.06003">
        <ele>35</ele>
        <time>2021-07-29T10:36:06Z</time>
      </trkpt>
      <trkpt lat="47.22075" lon="0.05988">
        <ele>35</ele>
        <time>2021-07-29T10:36:14Z</time>
      </trkpt>
      <trkpt lat="47.22079" lon="0.05975">
        <ele>34</ele>
        <time>2021-07-29T10:36:22Z</time>
      </trkpt>
      <trkpt lat="47.22084" lon="0.05962">
        <ele>34</ele>
        <time>2021-07-29T10:36:34Z</time>
      </trkpt>
      <trkpt lat="47.22089" lon="0.05947">
        <ele>34</ele>
        <time>2021-07-29T10:36:42Z</time>
      </trkpt>
      <trkpt lat="47.22096" lon="0.05935">
        <ele>34</ele>
        <time>2021-07-29T10:36:51Z</time>
      </trkpt>
      <trkpt lat="47.22104" lon="0.05932">
        <ele>34</ele>
        <time>2021-07-29T10:37:07Z</time>
      </trkpt>
      <trkpt lat="47.22116" lon="0.05933">
        <ele>35</ele>
        <time>2021-07-29T10:37:51Z</time>
      </trkpt>
      <trkpt lat="47.22125" lon="0.05941">
        <ele>35</ele>
        <time>2021-07-29T10:38:20Z</time>
      </trkpt>
      <trkpt lat="47.22135" lon="0.05944">
        <ele>35</ele>
        <time>2021-07-29T10:38:30Z</time>
      </trkpt>
      <trkpt lat="47.22146" lon="0.05949">
        <ele>35</ele>
        <time>2021-07-29T10:38:40Z</time>
      </trkpt>
      <trkpt lat="47.22156" lon="0.05951">
        <ele>35</ele>
        <time>2021-07-29T10:38:49Z</time>
      </trkpt>
      <trkpt lat="47.22166" lon="0.05954">
        <ele>36</ele>
        <time>2021-07-29T10:38:59Z</time>
      </trkpt>
      <trkpt lat="47.22175" lon="0.05959">
        <ele>35</ele>
        <time>2021-07-29T10:39:13Z</time>
      </trkpt>
      <trkpt lat="47.22185" lon="0.05963">
        <ele>36</ele>
        <time>2021-07-29T10:39:22Z</time>
      </trkpt>
      <trkpt lat="47.22193" lon="0.05958">
        <ele>36</ele>
        <time>2021-07-29T10:39:34Z</time>
      </trkpt>
      <trkpt lat="47.22194" lon="0.05944">
        <ele>36</ele>
        <time>2021-07-29T10:40:05Z</time>
      </trkpt>
      <trkpt lat="47.22198" lon="0.05931">
        <ele>36</ele>
        <time>2021-07-29T10:40:13Z</time>
      </trkpt>
      <trkpt lat="47.22203" lon="0.05918">
        <ele>35</ele>
        <time>2021-07-29T10:40:28Z</time>
      </trkpt>
      <trkpt lat="47.22206" lon="0.05909">
        <ele>35</ele>
        <time>2021-07-29T10:40:45Z</time>
      </trkpt>
      <trkpt lat="47.22208" lon="0.05894">
        <ele>35</ele>
        <time>2021-07-29T10:41:03Z</time>
      </trkpt>
      <trkpt lat="47.22209" lon="0.05877">
        <ele>35</ele>
        <time>2021-07-29T10:41:12Z</time>
      </trkpt>
      <trkpt lat="47.22213" lon="0.05862">
        <ele>35</ele>
        <time>2021-07-29T10:41:25Z</time>
      </trkpt>
      <trkpt lat="47.22216" lon="0.05847">
        <ele>35</ele>
        <time>2021-07-29T10:41:33Z</time>
      </trkpt>
      <trkpt lat="47.2222" lon="0.05833">
        <ele>35</ele>
        <time>2021-07-29T10:41:39Z</time>
      </trkpt>
      <trkpt lat="47.22223" lon="0.05816">
        <ele>35</ele>
        <time>2021-07-29T10:41:47Z</time>
      </trkpt>
      <trkpt lat="47.22225" lon="0.05802">
        <ele>35</ele>
        <time>2021-07-29T10:41:55Z</time>
      </trkpt>
      <trkpt lat="47.22227" lon="0.05788">
        <ele>35</ele>
        <time>2021-07-29T10:42:02Z</time>
      </trkpt>
      <trkpt lat="47.22228" lon="0.05774">
        <ele>35</ele>
        <time>2021-07-29T10:42:09Z</time>
      </trkpt>
      <trkpt lat="47.22232" lon="0.05762">
        <ele>35</ele>
        <time>2021-07-29T10:42:16Z</time>
      </trkpt>
      <trkpt lat="47.2224" lon="0.05751">
        <ele>35</ele>
        <time>2021-07-29T10:42:25Z</time>
      </trkpt>
      <trkpt lat="47.2225" lon="0.05744">
        <ele>35</ele>
        <time>2021-07-29T10:42:31Z</time>
      </trkpt>
      <trkpt lat="47.22258" lon="0.05732">
        <ele>35</ele>
        <time>2021-07-29T10:42:42Z</time>
      </trkpt>
      <trkpt lat="47.22266" lon="0.05721">
        <ele>35</ele>
        <time>2021-07-29T10:42:50Z</time>
      </trkpt>
      <trkpt lat="47.22275" lon="0.05712">
        <ele>35</ele>
        <time>2021-07-29T10:42:56Z</time>
      </trkpt>
      <trkpt lat="47.22283" lon="0.057">
        <ele>35</ele>
        <time>2021-07-29T10:43:04Z</time>
      </trkpt>
      <trkpt lat="47.22289" lon="0.05687">
        <ele>35</ele>
        <time>2021-07-29T10:43:13Z</time>
      </trkpt>
      <trkpt lat="47.22295" lon="0.05676">
        <ele>35</ele>
        <time>2021-07-29T10:43:27Z</time>
      </trkpt>
      <trkpt lat="47.22303" lon="0.05665">
        <ele>36</ele>
        <time>2021-07-29T10:43:33Z</time>
      </trkpt>
      <trkpt lat="47.22312" lon="0.05657">
        <ele>36</ele>
        <time>2021-07-29T10:43:41Z</time>
      </trkpt>
      <trkpt lat="47.22321" lon="0.0565">
        <ele>36</ele>
        <time>2021-07-29T10:43:49Z</time>
      </trkpt>
      <trkpt lat="47.2233" lon="0.05644">
        <ele>36</ele>
        <time>2021-07-29T10:43:57Z</time>
      </trkpt>
      <trkpt lat="47.22341" lon="0.05637">
        <ele>35</ele>
        <time>2021-07-29T10:44:06Z</time>
      </trkpt>
      <trkpt lat="47.22354" lon="0.05629">
        <ele>36</ele>
        <time>2021-07-29T10:44:17Z</time>
      </trkpt>
      <trkpt lat="47.22365" lon="0.05621">
        <ele>36</ele>
        <time>2021-07-29T10:44:25Z</time>
      </trkpt>
      <trkpt lat="47.22377" lon="0.05616">
        <ele>36</ele>
        <time>2021-07-29T10:44:33Z</time>
      </trkpt>
      <trkpt lat="47.22389" lon="0.0561">
        <ele>36</ele>
        <time>2021-07-29T10:44:42Z</time>
      </trkpt>
      <trkpt lat="47.224" lon="0.05605">
        <ele>35</ele>
        <time>2021-07-29T10:44:51Z</time>
      </trkpt>
      <trkpt lat="47.22412" lon="0.056">
        <ele>36</ele>
        <time>2021-07-29T10:45:00Z</time>
      </trkpt>
      <trkpt lat="47.22425" lon="0.05591">
        <ele>36</ele>
        <time>2021-07-29T10:45:10Z</time>
      </trkpt>
      <trkpt lat="47.22435" lon="0.05584">
        <ele>36</ele>
        <time>2021-07-29T10:45:17Z</time>
      </trkpt>
      <trkpt lat="47.22443" lon="0.05576">
        <ele>36</ele>
        <time>2021-07-29T10:45:25Z</time>
      </trkpt>
      <trkpt lat="47.22452" lon="0.05569">
        <ele>36</ele>
        <time>2021-07-29T10:45:32Z</time>
      </trkpt>
      <trkpt lat="47.22461" lon="0.05559">
        <ele>36</ele>
        <time>2021-07-29T10:45:41Z</time>
      </trkpt>
      <trkpt lat="47.22467" lon="0.05551">
        <ele>36</ele>
        <time>2021-07-29T10:45:48Z</time>
      </trkpt>
      <trkpt lat="47.22476" lon="0.05541">
        <ele>36</ele>
        <time>2021-07-29T10:45:57Z</time>
      </trkpt>
      <trkpt lat="47.22485" lon="0.05532">
        <ele>36</ele>
        <time>2021-07-29T10:46:05Z</time>
      </trkpt>
      <trkpt lat="47.22494" lon="0.05525">
        <ele>36</ele>
        <time>2021-07-29T10:46:13Z</time>
      </trkpt>
      <trkpt lat="47.22502" lon="0.05517">
        <ele>36</ele>
        <time>2021-07-29T10:46:20Z</time>
      </trkpt>
      <trkpt lat="47.22511" lon="0.05508">
        <ele>36</ele>
        <time>2021-07-29T10:46:28Z</time>
      </trkpt>
      <trkpt lat="47.2252" lon="0.05499">
        <ele>36</ele>
        <time>2021-07-29T10:46:36Z</time>
      </trkpt>
      <trkpt lat="47.22528" lon="0.0549">
        <ele>36</ele>
        <time>2021-07-29T10:46:43Z</time>
      </trkpt>
      <trkpt lat="47.22536" lon="0.05481">
        <ele>36</ele>
        <time>2021-07-29T10:46:51Z</time>
      </trkpt>
      <trkpt lat="47.22544" lon="0.05473">
        <ele>36</ele>
        <time>2021-07-29T10:46:57Z</time>
      </trkpt>
      <trkpt lat="47.22551" lon="0.05464">
        <ele>36</ele>
        <time>2021-07-29T10:47:05Z</time>
      </trkpt>
      <trkpt lat="47.22555" lon="0.05451">
        <ele>36</ele>
        <time>2021-07-29T10:47:13Z</time>
      </trkpt>
      <trkpt lat="47.22561" lon="0.05438">
        <ele>36</ele>
        <time>2021-07-29T10:47:21Z</time>
      </trkpt>
      <trkpt lat="47.22566" lon="0.05425">
        <ele>36</ele>
        <time>2021-07-29T10:47:29Z</time>
      </trkpt>
      <trkpt lat="47.22571" lon="0.05411">
        <ele>36</ele>
        <time>2021-07-29T10:47:37Z</time>
      </trkpt>
      <trkpt lat="47.22573" lon="0.05397">
        <ele>36</ele>
        <time>2021-07-29T10:47:43Z</time>
      </trkpt>
      <trkpt lat="47.22578" lon="0.05385">
        <ele>36</ele>
        <time>2021-07-29T10:47:55Z</time>
      </trkpt>
      <trkpt lat="47.22585" lon="0.05373">
        <ele>36</ele>
        <time>2021-07-29T10:48:29Z</time>
      </trkpt>
      <trkpt lat="47.2259" lon="0.0536">
        <ele>36</ele>
        <time>2021-07-29T10:48:37Z</time>
      </trkpt>
      <trkpt lat="47.22596" lon="0.05348">
        <ele>36</ele>
        <time>2021-07-29T10:48:45Z</time>
      </trkpt>
      <trkpt lat="47.22599" lon="0.05333">
        <ele>36</ele>
        <time>2021-07-29T10:48:53Z</time>
      </trkpt>
      <trkpt lat="47.22603" lon="0.05321">
        <ele>36</ele>
        <time>2021-07-29T10:49:00Z</time>
      </trkpt>
      <trkpt lat="47.22607" lon="0.05309">
        <ele>36</ele>
        <time>2021-07-29T10:49:06Z</time>
      </trkpt>
      <trkpt lat="47.22611" lon="0.05297">
        <ele>35</ele>
        <time>2021-07-29T10:49:14Z</time>
      </trkpt>
      <trkpt lat="47.22616" lon="0.05286">
        <ele>36</ele>
        <time>2021-07-29T10:49:20Z</time>
      </trkpt>
      <trkpt lat="47.22621" lon="0.05273">
        <ele>35</ele>
        <time>2021-07-29T10:49:28Z</time>
      </trkpt>
      <trkpt lat="47.22625" lon="0.05259">
        <ele>35</ele>
        <time>2021-07-29T10:49:36Z</time>
      </trkpt>
      <trkpt lat="47.2263" lon="0.05247">
        <ele>36</ele>
        <time>2021-07-29T10:49:44Z</time>
      </trkpt>
      <trkpt lat="47.22636" lon="0.05236">
        <ele>36</ele>
        <time>2021-07-29T10:49:50Z</time>
      </trkpt>
      <trkpt lat="47.22643" lon="0.05223">
        <ele>36</ele>
        <time>2021-07-29T10:49:58Z</time>
      </trkpt>
      <trkpt lat="47.22649" lon="0.05212">
        <ele>36</ele>
        <time>2021-07-29T10:50:05Z</time>
      </trkpt>
      <trkpt lat="47.22653" lon="0.05201">
        <ele>36</ele>
        <time>2021-07-29T10:50:12Z</time>
      </trkpt>
      <trkpt lat="47.22659" lon="0.05188">
        <ele>36</ele>
        <time>2021-07-29T10:50:19Z</time>
      </trkpt>
      <trkpt lat="47.22663" lon="0.05176">
        <ele>36</ele>
        <time>2021-07-29T10:50:27Z</time>
      </trkpt>
      <trkpt lat="47.22668" lon="0.05162">
        <ele>36</ele>
        <time>2021-07-29T10:50:35Z</time>
      </trkpt>
      <trkpt lat="47.22671" lon="0.05148">
        <ele>35</ele>
        <time>2021-07-29T10:50:42Z</time>
      </trkpt>
      <trkpt lat="47.22675" lon="0.05135">
        <ele>36</ele>
        <time>2021-07-29T10:50:51Z</time>
      </trkpt>
      <trkpt lat="47.22678" lon="0.05121">
        <ele>35</ele>
        <time>2021-07-29T10:50:59Z</time>
      </trkpt>
      <trkpt lat="47.2268" lon="0.05106">
        <ele>36</ele>
        <time>2021-07-29T10:51:13Z</time>
      </trkpt>
      <trkpt lat="47.22687" lon="0.051">
        <ele>36</ele>
        <time>2021-07-29T10:51:39Z</time>
      </trkpt>
      <trkpt lat="47.22693" lon="0.05087">
        <ele>36</ele>
        <time>2021-07-29T10:51:51Z</time>
      </trkpt>
      <trkpt lat="47.22698" lon="0.05075">
        <ele>35</ele>
        <time>2021-07-29T10:52:04Z</time>
      </trkpt>
      <trkpt lat="47.22703" lon="0.05062">
        <ele>35</ele>
        <time>2021-07-29T10:52:13Z</time>
      </trkpt>
      <trkpt lat="47.2271" lon="0.05052">
        <ele>36</ele>
        <time>2021-07-29T10:52:21Z</time>
      </trkpt>
      <trkpt lat="47.22721" lon="0.05062">
        <ele>37</ele>
        <time>2021-07-29T10:54:03Z</time>
      </trkpt>
      <trkpt lat="47.22721" lon="0.05079">
        <ele>37</ele>
        <time>2021-07-29T10:54:14Z</time>
      </trkpt>
      <trkpt lat="47.22719" lon="0.05095">
        <ele>39</ele>
        <time>2021-07-29T10:54:25Z</time>
      </trkpt>
      <trkpt lat="47.22721" lon="0.05102">
        <ele>40</ele>
        <time>2021-07-29T10:55:05Z</time>
      </trkpt>
      <trkpt lat="47.22726" lon="0.05092">
        <ele>40</ele>
        <time>2021-07-29T10:55:23Z</time>
      </trkpt>
      <trkpt lat="47.22729" lon="0.05078">
        <ele>41</ele>
        <time>2021-07-29T10:55:32Z</time>
      </trkpt>
      <trkpt lat="47.22734" lon="0.05065">
        <ele>41</ele>
        <time>2021-07-29T10:55:39Z</time>
      </trkpt>
      <trkpt lat="47.22738" lon="0.05051">
        <ele>41</ele>
        <time>2021-07-29T10:55:46Z</time>
      </trkpt>
      <trkpt lat="47.22744" lon="0.05038">
        <ele>41</ele>
        <time>2021-07-29T10:55:57Z</time>
      </trkpt>
      <trkpt lat="47.22748" lon="0.05025">
        <ele>41</ele>
        <time>2021-07-29T10:56:05Z</time>
      </trkpt>
      <trkpt lat="47.22742" lon="0.05013">
        <ele>42</ele>
        <time>2021-07-29T10:56:18Z</time>
      </trkpt>
      <trkpt lat="47.22735" lon="0.05007">
        <ele>41</ele>
        <time>2021-07-29T10:56:44Z</time>
      </trkpt>
      <trkpt lat="47.22731" lon="0.05005">
        <ele>41</ele>
        <time>2021-07-29T10:57:37Z</time>
      </trkpt>
      <trkpt lat="47.22721" lon="0.04997">
        <ele>41</ele>
        <time>2021-07-29T10:57:49Z</time>
      </trkpt>
      <trkpt lat="47.22712" lon="0.04988">
        <ele>41</ele>
        <time>2021-07-29T10:57:59Z</time>
      </trkpt>
      <trkpt lat="47.22703" lon="0.04982">
        <ele>41</ele>
        <time>2021-07-29T10:58:08Z</time>
      </trkpt>
      <trkpt lat="47.22692" lon="0.04975">
        <ele>42</ele>
        <time>2021-07-29T10:58:17Z</time>
      </trkpt>
      <trkpt lat="47.22683" lon="0.04968">
        <ele>42</ele>
        <time>2021-07-29T10:58:26Z</time>
      </trkpt>
      <trkpt lat="47.22673" lon="0.04962">
        <ele>42</ele>
        <time>2021-07-29T10:58:37Z</time>
      </trkpt>
      <trkpt lat="47.2266" lon="0.0495">
        <ele>42</ele>
        <time>2021-07-29T10:58:49Z</time>
      </trkpt>
      <trkpt lat="47.22643" lon="0.04941">
        <ele>42</ele>
        <time>2021-07-29T10:58:59Z</time>
      </trkpt>
      <trkpt lat="47.2263" lon="0.04933">
        <ele>42</ele>
        <time>2021-07-29T10:59:08Z</time>
      </trkpt>
      <trkpt lat="47.22616" lon="0.04924">
        <ele>42</ele>
        <time>2021-07-29T10:59:21Z</time>
      </trkpt>
      <trkpt lat="47.22601" lon="0.04916">
        <ele>42</ele>
        <time>2021-07-29T10:59:33Z</time>
      </trkpt>
      <trkpt lat="47.22588" lon="0.04908">
        <ele>42</ele>
        <time>2021-07-29T10:59:45Z</time>
      </trkpt>
      <trkpt lat="47.22572" lon="0.04897">
        <ele>42</ele>
        <time>2021-07-29T10:59:58Z</time>
      </trkpt>
      <trkpt lat="47.2256" lon="0.04888">
        <ele>42</ele>
        <time>2021-07-29T11:00:07Z</time>
      </trkpt>
      <trkpt lat="47.22546" lon="0.0488">
        <ele>42</ele>
        <time>2021-07-29T11:00:19Z</time>
      </trkpt>
      <trkpt lat="47.22529" lon="0.04869">
        <ele>42</ele>
        <time>2021-07-29T11:00:35Z</time>
      </trkpt>
      <trkpt lat="47.22515" lon="0.04859">
        <ele>42</ele>
        <time>2021-07-29T11:00:46Z</time>
      </trkpt>
      <trkpt lat="47.22502" lon="0.04852">
        <ele>42</ele>
        <time>2021-07-29T11:01:02Z</time>
      </trkpt>
      <trkpt lat="47.22488" lon="0.04843">
        <ele>42</ele>
        <time>2021-07-29T11:01:14Z</time>
      </trkpt>
      <trkpt lat="47.22474" lon="0.04834">
        <ele>42</ele>
        <time>2021-07-29T11:01:26Z</time>
      </trkpt>
      <trkpt lat="47.22459" lon="0.04823">
        <ele>42</ele>
        <time>2021-07-29T11:01:39Z</time>
      </trkpt>
      <trkpt lat="47.22445" lon="0.04814">
        <ele>42</ele>
        <time>2021-07-29T11:01:51Z</time>
      </trkpt>
      <trkpt lat="47.22431" lon="0.04805">
        <ele>42</ele>
        <time>2021-07-29T11:02:03Z</time>
      </trkpt>
      <trkpt lat="47.22414" lon="0.04793">
        <ele>42</ele>
        <time>2021-07-29T11:02:16Z</time>
      </trkpt>
      <trkpt lat="47.22398" lon="0.04781">
        <ele>42</ele>
        <time>2021-07-29T11:02:30Z</time>
      </trkpt>
      <trkpt lat="47.22382" lon="0.04771">
        <ele>42</ele>
        <time>2021-07-29T11:02:43Z</time>
      </trkpt>
      <trkpt lat="47.22366" lon="0.04763">
        <ele>42</ele>
        <time>2021-07-29T11:02:56Z</time>
      </trkpt>
      <trkpt lat="47.22349" lon="0.04751">
        <ele>42</ele>
        <time>2021-07-29T11:03:11Z</time>
      </trkpt>
      <trkpt lat="47.22332" lon="0.04741">
        <ele>42</ele>
        <time>2021-07-29T11:03:24Z</time>
      </trkpt>
      <trkpt lat="47.22316" lon="0.0473">
        <ele>42</ele>
        <time>2021-07-29T11:03:38Z</time>
      </trkpt>
      <trkpt lat="47.22304" lon="0.04722">
        <ele>42</ele>
        <time>2021-07-29T11:03:48Z</time>
      </trkpt>
      <trkpt lat="47.22288" lon="0.04711">
        <ele>42</ele>
        <time>2021-07-29T11:04:03Z</time>
      </trkpt>
      <trkpt lat="47.22273" lon="0.04701">
        <ele>41</ele>
        <time>2021-07-29T11:04:16Z</time>
      </trkpt>
      <trkpt lat="47.22257" lon="0.0469">
        <ele>41</ele>
        <time>2021-07-29T11:04:32Z</time>
      </trkpt>
      <trkpt lat="47.22247" lon="0.04681">
        <ele>41</ele>
        <time>2021-07-29T11:04:47Z</time>
      </trkpt>
      <trkpt lat="47.22241" lon="0.0467">
        <ele>41</ele>
        <time>2021-07-29T11:05:17Z</time>
      </trkpt>
      <trkpt lat="47.22232" lon="0.04667">
        <ele>41</ele>
        <time>2021-07-29T11:05:46Z</time>
      </trkpt>
      <trkpt lat="47.22222" lon="0.04663">
        <ele>41</ele>
        <time>2021-07-29T11:06:32Z</time>
      </trkpt>
      <trkpt lat="47.22213" lon="0.04657">
        <ele>40</ele>
        <time>2021-07-29T11:07:11Z</time>
      </trkpt>
      <trkpt lat="47.22218" lon="0.04652">
        <ele>37</ele>
        <time>2021-07-29T11:08:00Z</time>
      </trkpt>
      <trkpt lat="47.22225" lon="0.04653">
        <ele>36</ele>
        <time>2021-07-29T11:09:12Z</time>
      </trkpt>
      <trkpt lat="47.22235" lon="0.04659">
        <ele>36</ele>
        <time>2021-07-29T11:09:22Z</time>
      </trkpt>
      <trkpt lat="47.22244" lon="0.04663">
        <ele>36</ele>
        <time>2021-07-29T11:09:31Z</time>
      </trkpt>
      <trkpt lat="47.22253" lon="0.04672">
        <ele>36</ele>
        <time>2021-07-29T11:09:45Z</time>
      </trkpt>
      <trkpt lat="47.2226" lon="0.04676">
        <ele>35</ele>
        <time>2021-07-29T11:10:16Z</time>
      </trkpt>
      <trkpt lat="47.22263" lon="0.04666">
        <ele>36</ele>
        <time>2021-07-29T11:10:46Z</time>
      </trkpt>
      <trkpt lat="47.2227" lon="0.04655">
        <ele>36</ele>
        <time>2021-07-29T11:10:56Z</time>
      </trkpt>
      <trkpt lat="47.22279" lon="0.04644">
        <ele>35</ele>
        <time>2021-07-29T11:11:07Z</time>
      </trkpt>
      <trkpt lat="47.22286" lon="0.04633">
        <ele>35</ele>
        <time>2021-07-29T11:11:17Z</time>
      </trkpt>
      <trkpt lat="47.22295" lon="0.04617">
        <ele>35</ele>
        <time>2021-07-29T11:11:29Z</time>
      </trkpt>
      <trkpt lat="47.22304" lon="0.04606">
        <ele>35</ele>
        <time>2021-07-29T11:11:39Z</time>
      </trkpt>
      <trkpt lat="47.22312" lon="0.04595">
        <ele>35</ele>
        <time>2021-07-29T11:11:48Z</time>
      </trkpt>
      <trkpt lat="47.2232" lon="0.04586">
        <ele>35</ele>
        <time>2021-07-29T11:11:56Z</time>
      </trkpt>
      <trkpt lat="47.22329" lon="0.04575">
        <ele>35</ele>
        <time>2021-07-29T11:12:05Z</time>
      </trkpt>
      <trkpt lat="47.22337" lon="0.04563">
        <ele>35</ele>
        <time>2021-07-29T11:12:14Z</time>
      </trkpt>
      <trkpt lat="47.22344" lon="0.04551">
        <ele>35</ele>
        <time>2021-07-29T11:12:23Z</time>
      </trkpt>
      <trkpt lat="47.22348" lon="0.04537">
        <ele>35</ele>
        <time>2021-07-29T11:12:31Z</time>
      </trkpt>
      <trkpt lat="47.22354" lon="0.04524">
        <ele>35</ele>
        <time>2021-07-29T11:12:39Z</time>
      </trkpt>
      <trkpt lat="47.22358" lon="0.04512">
        <ele>35</ele>
        <time>2021-07-29T11:12:47Z</time>
      </trkpt>
      <trkpt lat="47.22363" lon="0.04499">
        <ele>35</ele>
        <time>2021-07-29T11:12:54Z</time>
      </trkpt>
      <trkpt lat="47.2237" lon="0.04485">
        <ele>35</ele>
        <time>2021-07-29T11:13:02Z</time>
      </trkpt>
      <trkpt lat="47.22376" lon="0.04472">
        <ele>35</ele>
        <time>2021-07-29T11:13:10Z</time>
      </trkpt>
      <trkpt lat="47.22381" lon="0.04459">
        <ele>35</ele>
        <time>2021-07-29T11:13:18Z</time>
      </trkpt>
      <trkpt lat="47.22386" lon="0.04445">
        <ele>34</ele>
        <time>2021-07-29T11:13:26Z</time>
      </trkpt>
      <trkpt lat="47.22389" lon="0.04427">
        <ele>35</ele>
        <time>2021-07-29T11:13:34Z</time>
      </trkpt>
      <trkpt lat="47.22392" lon="0.04413">
        <ele>35</ele>
        <time>2021-07-29T11:13:42Z</time>
      </trkpt>
      <trkpt lat="47.22394" lon="0.04397">
        <ele>35</ele>
        <time>2021-07-29T11:13:50Z</time>
      </trkpt>
      <trkpt lat="47.22395" lon="0.04382">
        <ele>35</ele>
        <time>2021-07-29T11:13:58Z</time>
      </trkpt>
      <trkpt lat="47.22398" lon="0.04367">
        <ele>35</ele>
        <time>2021-07-29T11:14:06Z</time>
      </trkpt>
      <trkpt lat="47.22401" lon="0.04353">
        <ele>35</ele>
        <time>2021-07-29T11:14:14Z</time>
      </trkpt>
      <trkpt lat="47.22406" lon="0.0434">
        <ele>35</ele>
        <time>2021-07-29T11:14:22Z</time>
      </trkpt>
      <trkpt lat="47.22409" lon="0.04323">
        <ele>35</ele>
        <time>2021-07-29T11:14:30Z</time>
      </trkpt>
      <trkpt lat="47.22412" lon="0.04306">
        <ele>36</ele>
        <time>2021-07-29T11:14:38Z</time>
      </trkpt>
      <trkpt lat="47.22415" lon="0.04291">
        <ele>36</ele>
        <time>2021-07-29T11:14:46Z</time>
      </trkpt>
      <trkpt lat="47.2242" lon="0.04277">
        <ele>37</ele>
        <time>2021-07-29T11:14:54Z</time>
      </trkpt>
      <trkpt lat="47.22424" lon="0.04266">
        <ele>36</ele>
        <time>2021-07-29T11:15:01Z</time>
      </trkpt>
      <trkpt lat="47.2243" lon="0.04254">
        <ele>36</ele>
        <time>2021-07-29T11:15:09Z</time>
      </trkpt>
      <trkpt lat="47.22437" lon="0.04244">
        <ele>36</ele>
        <time>2021-07-29T11:15:16Z</time>
      </trkpt>
      <trkpt lat="47.22445" lon="0.04231">
        <ele>36</ele>
        <time>2021-07-29T11:15:24Z</time>
      </trkpt>
      <trkpt lat="47.22454" lon="0.04221">
        <ele>37</ele>
        <time>2021-07-29T11:15:32Z</time>
      </trkpt>
      <trkpt lat="47.2246" lon="0.04211">
        <ele>37</ele>
        <time>2021-07-29T11:15:39Z</time>
      </trkpt>
      <trkpt lat="47.22467" lon="0.042">
        <ele>37</ele>
        <time>2021-07-29T11:15:46Z</time>
      </trkpt>
      <trkpt lat="47.22473" lon="0.04189">
        <ele>37</ele>
        <time>2021-07-29T11:15:53Z</time>
      </trkpt>
      <trkpt lat="47.22478" lon="0.04176">
        <ele>37</ele>
        <time>2021-07-29T11:16:01Z</time>
      </trkpt>
      <trkpt lat="47.22484" lon="0.04164">
        <ele>37</ele>
        <time>2021-07-29T11:16:08Z</time>
      </trkpt>
      <trkpt lat="47.22489" lon="0.04152">
        <ele>37</ele>
        <time>2021-07-29T11:16:15Z</time>
      </trkpt>
      <trkpt lat="47.22495" lon="0.04142">
        <ele>37</ele>
        <time>2021-07-29T11:16:22Z</time>
      </trkpt>
      <trkpt lat="47.22501" lon="0.04131">
        <ele>37</ele>
        <time>2021-07-29T11:16:35Z</time>
      </trkpt>
      <trkpt lat="47.22506" lon="0.04118">
        <ele>37</ele>
        <time>2021-07-29T11:16:42Z</time>
      </trkpt>
      <trkpt lat="47.22511" lon="0.04107">
        <ele>36</ele>
        <time>2021-07-29T11:16:49Z</time>
      </trkpt>
      <trkpt lat="47.22518" lon="0.04097">
        <ele>36</ele>
        <time>2021-07-29T11:16:56Z</time>
      </trkpt>
      <trkpt lat="47.22525" lon="0.04086">
        <ele>36</ele>
        <time>2021-07-29T11:17:03Z</time>
      </trkpt>
      <trkpt lat="47.22532" lon="0.04076">
        <ele>36</ele>
        <time>2021-07-29T11:17:10Z</time>
      </trkpt>
      <trkpt lat="47.22538" lon="0.04065">
        <ele>36</ele>
        <time>2021-07-29T11:17:17Z</time>
      </trkpt>
      <trkpt lat="47.22546" lon="0.04055">
        <ele>36</ele>
        <time>2021-07-29T11:17:24Z</time>
      </trkpt>
      <trkpt lat="47.22553" lon="0.04044">
        <ele>36</ele>
        <time>2021-07-29T11:17:31Z</time>
      </trkpt>
      <trkpt lat="47.22558" lon="0.04032">
        <ele>36</ele>
        <time>2021-07-29T11:17:39Z</time>
      </trkpt>
      <trkpt lat="47.22561" lon="0.04019">
        <ele>36</ele>
        <time>2021-07-29T11:17:46Z</time>
      </trkpt>
      <trkpt lat="47.22563" lon="0.04004">
        <ele>36</ele>
        <time>2021-07-29T11:17:54Z</time>
      </trkpt>
      <trkpt lat="47.22563" lon="0.04002">
        <ele>35</ele>
        <time>2021-07-29T11:18:33Z</time>
      </trkpt>
      <trkpt lat="47.22557" lon="0.03991">
        <ele>35</ele>
        <time>2021-07-29T11:18:57Z</time>
      </trkpt>
      <trkpt lat="47.22548" lon="0.03982">
        <ele>34</ele>
        <time>2021-07-29T11:19:06Z</time>
      </trkpt>
      <trkpt lat="47.22538" lon="0.03975">
        <ele>34</ele>
        <time>2021-07-29T11:19:17Z</time>
      </trkpt>
      <trkpt lat="47.22529" lon="0.03966">
        <ele>34</ele>
        <time>2021-07-29T11:19:28Z</time>
      </trkpt>
      <trkpt lat="47.22518" lon="0.03952">
        <ele>35</ele>
        <time>2021-07-29T11:19:41Z</time>
      </trkpt>
      <trkpt lat="47.22509" lon="0.03939">
        <ele>35</ele>
        <time>2021-07-29T11:19:50Z</time>
      </trkpt>
      <trkpt lat="47.225" lon="0.03928">
        <ele>35</ele>
        <time>2021-07-29T11:19:59Z</time>
      </trkpt>
      <trkpt lat="47.22493" lon="0.03914">
        <ele>35</ele>
        <time>2021-07-29T11:20:09Z</time>
      </trkpt>
      <trkpt lat="47.22484" lon="0.03903">
        <ele>35</ele>
        <time>2021-07-29T11:20:18Z</time>
      </trkpt>
      <trkpt lat="47.22476" lon="0.03892">
        <ele>35</ele>
        <time>2021-07-29T11:20:27Z</time>
      </trkpt>
      <trkpt lat="47.22468" lon="0.03877">
        <ele>35</ele>
        <time>2021-07-29T11:20:36Z</time>
      </trkpt>
      <trkpt lat="47.22458" lon="0.03863">
        <ele>35</ele>
        <time>2021-07-29T11:20:44Z</time>
      </trkpt>
      <trkpt lat="47.2245" lon="0.0385">
        <ele>35</ele>
        <time>2021-07-29T11:20:53Z</time>
      </trkpt>
      <trkpt lat="47.22443" lon="0.03838">
        <ele>35</ele>
        <time>2021-07-29T11:21:01Z</time>
      </trkpt>
      <trkpt lat="47.22434" lon="0.03824">
        <ele>36</ele>
        <time>2021-07-29T11:21:09Z</time>
      </trkpt>
      <trkpt lat="47.22427" lon="0.03811">
        <ele>36</ele>
        <time>2021-07-29T11:21:17Z</time>
      </trkpt>
      <trkpt lat="47.22424" lon="0.03797">
        <ele>38</ele>
        <time>2021-07-29T11:21:59Z</time>
      </trkpt>
      <trkpt lat="47.22418" lon="0.03789">
        <ele>38</ele>
        <time>2021-07-29T11:22:10Z</time>
      </trkpt>
      <trkpt lat="47.22412" lon="0.03783">
        <ele>37</ele>
        <time>2021-07-29T11:23:47Z</time>
      </trkpt>
      <trkpt lat="47.22409" lon="0.03776">
        <ele>38</ele>
        <time>2021-07-29T11:24:29Z</time>
      </trkpt>
      <trkpt lat="47.22402" lon="0.03767">
        <ele>38</ele>
        <time>2021-07-29T11:24:38Z</time>
      </trkpt>
      <trkpt lat="47.22394" lon="0.03758">
        <ele>38</ele>
        <time>2021-07-29T11:24:49Z</time>
      </trkpt>
      <trkpt lat="47.22388" lon="0.03747">
        <ele>38</ele>
        <time>2021-07-29T11:24:59Z</time>
      </trkpt>
      <trkpt lat="47.22381" lon="0.03737">
        <ele>38</ele>
        <time>2021-07-29T11:25:09Z</time>
      </trkpt>
      <trkpt lat="47.22375" lon="0.03726">
        <ele>38</ele>
        <time>2021-07-29T11:25:19Z</time>
      </trkpt>
      <trkpt lat="47.22368" lon="0.03717">
        <ele>38</ele>
        <time>2021-07-29T11:25:28Z</time>
      </trkpt>
      <trkpt lat="47.22363" lon="0.03705">
        <ele>38</ele>
        <time>2021-07-29T11:25:38Z</time>
      </trkpt>
      <trkpt lat="47.22357" lon="0.03694">
        <ele>38</ele>
        <time>2021-07-29T11:25:48Z</time>
      </trkpt>
      <trkpt lat="47.22353" lon="0.03681">
        <ele>38</ele>
        <time>2021-07-29T11:25:58Z</time>
      </trkpt>
      <trkpt lat="47.22346" lon="0.0367">
        <ele>38</ele>
        <time>2021-07-29T11:26:07Z</time>
      </trkpt>
      <trkpt lat="47.22339" lon="0.03658">
        <ele>38</ele>
        <time>2021-07-29T11:26:18Z</time>
      </trkpt>
      <trkpt lat="47.22332" lon="0.03645">
        <ele>38</ele>
        <time>2021-07-29T11:26:29Z</time>
      </trkpt>
      <trkpt lat="47.22326" lon="0.03631">
        <ele>39</ele>
        <time>2021-07-29T11:26:43Z</time>
      </trkpt>
      <trkpt lat="47.22321" lon="0.03616">
        <ele>39</ele>
        <time>2021-07-29T11:27:22Z</time>
      </trkpt>
      <trkpt lat="47.22315" lon="0.03604">
        <ele>39</ele>
        <time>2021-07-29T11:27:31Z</time>
      </trkpt>
      <trkpt lat="47.22309" lon="0.03594">
        <ele>39</ele>
        <time>2021-07-29T11:27:39Z</time>
      </trkpt>
      <trkpt lat="47.22302" lon="0.03584">
        <ele>39</ele>
        <time>2021-07-29T11:27:53Z</time>
      </trkpt>
      <trkpt lat="47.22299" lon="0.03578">
        <ele>39</ele>
        <time>2021-07-29T11:28:38Z</time>
      </trkpt>
      <trkpt lat="47.22295" lon="0.03571">
        <ele>39</ele>
        <time>2021-07-29T11:29:37Z</time>
      </trkpt>
      <trkpt lat="47.2229" lon="0.03558">
        <ele>39</ele>
        <time>2021-07-29T11:29:44Z</time>
      </trkpt>
      <trkpt lat="47.22287" lon="0.03548">
        <ele>39</ele>
        <time>2021-07-29T11:29:57Z</time>
      </trkpt>
      <trkpt lat="47.22281" lon="0.03537">
        <ele>39</ele>
        <time>2021-07-29T11:30:04Z</time>
      </trkpt>
      <trkpt lat="47.22275" lon="0.03526">
        <ele>39</ele>
        <time>2021-07-29T11:30:11Z</time>
      </trkpt>
      <trkpt lat="47.2227" lon="0.03514">
        <ele>39</ele>
        <time>2021-07-29T11:30:18Z</time>
      </trkpt>
      <trkpt lat="47.22263" lon="0.03502">
        <ele>39</ele>
        <time>2021-07-29T11:30:26Z</time>
      </trkpt>
      <trkpt lat="47.22259" lon="0.03493">
        <ele>39</ele>
        <time>2021-07-29T11:30:41Z</time>
      </trkpt>
      <trkpt lat="47.22259" lon="0.03488">
        <ele>39</ele>
        <time>2021-07-29T11:32:12Z</time>
      </trkpt>
    </trkseg>
  </trk>
</gpx>